TAM8073 LIMC-SBGR
Flight info
| Callsign | TAM8073 |
|---|---|
| Flight time | N/A |
| Altitude | 31000 |
| Route | NEDED DCT VAMTU UM984 DIVKO UN975 NILDU/N0483F330 N975 BCN M985 MGA N851 VJF L82 RUNAX UL82 IBALU UN857 TERTO/N0487F340 N857 LZR/N0484F330 N871 GDV N873 ODEGI/N0487F340 N873 IPERA UN873 SADBA/N0484F360 UN873 NTL DCT OPTUR DCT ASGIK UZ21 USIPA/N0478F380 UZ21 VUNOX |
| Aircraft | B77W/H-SDE1E2E3FGHIJ2J3J4J5M1RWXY/LB1D1 |
Departure
| Time | 2026-02-22 04:43 |
|---|---|
| Airport | Milan Malpensa International Airport (LIMC) |
Arrival
| Time | N/A |
|---|---|
| Airport | São Paulo/Guarulhos–Governor André Franco Montoro International Airport (SBGR) |
| Time | Latitude | Longitude | Altitude | Speed | Heading |
|---|---|---|---|---|---|
| 2026-02-22 03:58 | 45.63179 | 8.71546 | 780 ft | 0 kts | 234° |
| 2026-02-22 04:27 | 45.63179 | 8.71547 | 780 ft | 1 kts | 234° |
| 2026-02-22 04:27 | 45.63188 | 8.71563 | 780 ft | 3 kts | 234° |
| 2026-02-22 04:28 | 45.63200 | 8.71587 | 780 ft | 3 kts | 234° |
| 2026-02-22 04:28 | 45.63211 | 8.71610 | 780 ft | 3 kts | 234° |
| 2026-02-22 04:28 | 45.63223 | 8.71633 | 780 ft | 3 kts | 227° |
| 2026-02-22 04:28 | 45.63235 | 8.71650 | 780 ft | 3 kts | 205° |
| 2026-02-22 04:29 | 45.63245 | 8.71657 | 780 ft | 2 kts | 172° |
| 2026-02-22 04:29 | 45.63262 | 8.71653 | 780 ft | 3 kts | 169° |
| 2026-02-22 04:29 | 45.63281 | 8.71648 | 780 ft | 2 kts | 169° |
| 2026-02-22 04:29 | 45.63288 | 8.71646 | 780 ft | 0 kts | 169° |
| 2026-02-22 04:32 | 45.63287 | 8.71646 | 780 ft | 2 kts | 169° |
| 2026-02-22 04:32 | 45.63231 | 8.71662 | 780 ft | 13 kts | 169° |
| 2026-02-22 04:33 | 45.63144 | 8.71686 | 780 ft | 12 kts | 169° |
| 2026-02-22 04:33 | 45.63067 | 8.71707 | 780 ft | 11 kts | 169° |
| 2026-02-22 04:33 | 45.63001 | 8.71726 | 780 ft | 8 kts | 166° |
| 2026-02-22 04:33 | 45.62976 | 8.71770 | 780 ft | 5 kts | 94° |
| 2026-02-22 04:34 | 45.62976 | 8.71818 | 780 ft | 4 kts | 82° |
| 2026-02-22 04:34 | 45.62981 | 8.71863 | 780 ft | 5 kts | 81° |
| 2026-02-22 04:34 | 45.62987 | 8.71907 | 780 ft | 4 kts | 80° |
| 2026-02-22 04:34 | 45.62993 | 8.71958 | 780 ft | 5 kts | 80° |
| 2026-02-22 04:35 | 45.62994 | 8.72000 | 780 ft | 3 kts | 110° |
| 2026-02-22 04:35 | 45.62974 | 8.72026 | 780 ft | 5 kts | 147° |
| 2026-02-22 04:35 | 45.62944 | 8.72044 | 780 ft | 5 kts | 163° |
| 2026-02-22 04:35 | 45.62906 | 8.72057 | 780 ft | 8 kts | 166° |
| 2026-02-22 04:36 | 45.62825 | 8.72082 | 781 ft | 13 kts | 169° |
| 2026-02-22 04:36 | 45.62740 | 8.72105 | 781 ft | 13 kts | 169° |
| 2026-02-22 04:36 | 45.62632 | 8.72135 | 781 ft | 19 kts | 169° |
| 2026-02-22 04:36 | 45.62500 | 8.72172 | 781 ft | 18 kts | 169° |
| 2026-02-22 04:37 | 45.62381 | 8.72205 | 781 ft | 17 kts | 169° |
| 2026-02-22 04:37 | 45.62275 | 8.72234 | 781 ft | 15 kts | 169° |
| 2026-02-22 04:37 | 45.62179 | 8.72260 | 781 ft | 13 kts | 169° |
| 2026-02-22 04:37 | 45.62095 | 8.72284 | 781 ft | 12 kts | 169° |
| 2026-02-22 04:38 | 45.62021 | 8.72304 | 780 ft | 10 kts | 169° |
| 2026-02-22 04:38 | 45.61954 | 8.72323 | 780 ft | 10 kts | 169° |
| 2026-02-22 04:38 | 45.61866 | 8.72347 | 781 ft | 15 kts | 169° |
| 2026-02-22 04:38 | 45.61764 | 8.72375 | 781 ft | 14 kts | 169° |
| 2026-02-22 04:39 | 45.61673 | 8.72400 | 781 ft | 13 kts | 169° |
| 2026-02-22 04:39 | 45.61592 | 8.72423 | 781 ft | 11 kts | 169° |
| 2026-02-22 04:39 | 45.61522 | 8.72442 | 780 ft | 10 kts | 169° |
| 2026-02-22 04:39 | 45.61462 | 8.72459 | 780 ft | 8 kts | 169° |
| 2026-02-22 04:40 | 45.61425 | 8.72500 | 780 ft | 6 kts | 112° |
| 2026-02-22 04:40 | 45.61426 | 8.72550 | 780 ft | 5 kts | 81° |
| 2026-02-22 04:40 | 45.61431 | 8.72591 | 780 ft | 4 kts | 81° |
| 2026-02-22 04:40 | 45.61436 | 8.72638 | 780 ft | 6 kts | 81° |
| 2026-02-22 04:41 | 45.61448 | 8.72691 | 780 ft | 5 kts | 47° |
| 2026-02-22 04:41 | 45.61482 | 8.72706 | 780 ft | 5 kts | 358° |
| 2026-02-22 04:41 | 45.61504 | 8.72701 | 780 ft | 0 kts | 349° |
| 2026-02-22 04:41 | 45.61506 | 8.72700 | 780 ft | 0 kts | 349° |
| 2026-02-22 04:42 | 45.61512 | 8.72699 | 780 ft | 4 kts | 349° |
| 2026-02-22 04:42 | 45.61622 | 8.72670 | 781 ft | 34 kts | 349° |
| 2026-02-22 04:42 | 45.62064 | 8.72549 | 781 ft | 96 kts | 349° |
| 2026-02-22 04:42 | 45.62913 | 8.72315 | 781 ft | 152 kts | 349° |
| 2026-02-22 04:43 | 45.64126 | 8.71979 | 899 ft | 191 kts | 349° |
| 2026-02-22 04:43 | 45.65378 | 8.71581 | 1632 ft | 185 kts | 339° |
| 2026-02-22 04:43 | 45.66363 | 8.70343 | 2007 ft | 197 kts | 302° |
| 2026-02-22 04:43 | 45.66503 | 8.68428 | 2467 ft | 196 kts | 269° |
| 2026-02-22 04:44 | 45.66177 | 8.66555 | 2983 ft | 195 kts | 261° |
| 2026-02-22 04:44 | 45.65921 | 8.64631 | 3316 ft | 202 kts | 263° |
| 2026-02-22 04:44 | 45.65848 | 8.62578 | 3644 ft | 206 kts | 272° |
| 2026-02-22 04:44 | 45.65966 | 8.60508 | 4005 ft | 210 kts | 274° |
| 2026-02-22 04:45 | 45.66132 | 8.58421 | 4389 ft | 213 kts | 278° |
| 2026-02-22 04:45 | 45.66377 | 8.56318 | 4789 ft | 215 kts | 280° |
| 2026-02-22 04:45 | 45.66662 | 8.54233 | 5183 ft | 217 kts | 281° |
| 2026-02-22 04:45 | 45.66964 | 8.52108 | 5539 ft | 222 kts | 281° |
| 2026-02-22 04:46 | 45.67240 | 8.49909 | 5864 ft | 227 kts | 275° |
| 2026-02-22 04:46 | 45.66995 | 8.47662 | 6092 ft | 233 kts | 248° |
| 2026-02-22 04:46 | 45.66119 | 8.45713 | 6508 ft | 233 kts | 232° |
| 2026-02-22 04:46 | 45.65054 | 8.43953 | 6920 ft | 234 kts | 229° |
| 2026-02-22 04:47 | 45.63951 | 8.42264 | 7278 ft | 235 kts | 225° |
| 2026-02-22 04:47 | 45.62592 | 8.40927 | 7554 ft | 240 kts | 206° |
| 2026-02-22 04:47 | 45.60988 | 8.40131 | 7686 ft | 254 kts | 197° |
| 2026-02-22 04:47 | 45.59244 | 8.39494 | 7896 ft | 264 kts | 193° |
| 2026-02-22 04:48 | 45.57413 | 8.38949 | 8211 ft | 272 kts | 191° |
| 2026-02-22 04:48 | 45.55510 | 8.38434 | 8367 ft | 286 kts | 191° |
| 2026-02-22 04:48 | 45.53536 | 8.37902 | 8735 ft | 292 kts | 191° |
| 2026-02-22 04:48 | 45.51534 | 8.37354 | 9338 ft | 290 kts | 191° |
| 2026-02-22 04:49 | 45.49563 | 8.36806 | 9887 ft | 291 kts | 191° |
| 2026-02-22 04:49 | 45.47555 | 8.36244 | 10275 ft | 299 kts | 191° |
| 2026-02-22 04:49 | 45.45461 | 8.35654 | 10493 ft | 315 kts | 191° |
| 2026-02-22 04:49 | 45.43254 | 8.35029 | 10690 ft | 333 kts | 191° |
| 2026-02-22 04:50 | 45.40919 | 8.34365 | 10885 ft | 350 kts | 191° |
| 2026-02-22 04:50 | 45.38470 | 8.33668 | 11191 ft | 364 kts | 191° |
| 2026-02-22 04:50 | 45.35961 | 8.32954 | 11621 ft | 374 kts | 191° |
| 2026-02-22 04:50 | 45.33385 | 8.32220 | 12165 ft | 381 kts | 191° |
| 2026-02-22 04:51 | 45.30770 | 8.31475 | 12782 ft | 385 kts | 191° |
| 2026-02-22 04:51 | 45.29023 | 8.30977 | 13194 ft | 388 kts | 191° |
| 2026-02-22 04:51 | 45.26354 | 8.30206 | 13829 ft | 392 kts | 191° |
| 2026-02-22 04:51 | 45.22787 | 8.29181 | 14652 ft | 396 kts | 191° |
| 2026-02-22 04:52 | 45.18223 | 8.27877 | 15650 ft | 402 kts | 191° |
| 2026-02-22 04:52 | 45.15498 | 8.27101 | 16217 ft | 406 kts | 191° |
| 2026-02-22 04:52 | 45.12711 | 8.26308 | 16783 ft | 409 kts | 191° |
| 2026-02-22 04:53 | 45.09917 | 8.25515 | 17329 ft | 412 kts | 191° |
| 2026-02-22 04:53 | 45.07083 | 8.24711 | 17871 ft | 416 kts | 191° |
| 2026-02-22 04:53 | 45.04226 | 8.23902 | 18397 ft | 419 kts | 191° |
| 2026-02-22 04:53 | 45.01350 | 8.23088 | 18911 ft | 422 kts | 191° |
| 2026-02-22 04:54 | 44.98472 | 8.22265 | 19411 ft | 425 kts | 191° |
| 2026-02-22 04:54 | 44.95549 | 8.21435 | 19906 ft | 429 kts | 191° |
| 2026-02-22 04:54 | 44.92619 | 8.20608 | 20385 ft | 432 kts | 191° |
| 2026-02-22 04:54 | 44.89655 | 8.19774 | 20854 ft | 435 kts | 191° |
| 2026-02-22 04:55 | 44.86664 | 8.18934 | 21312 ft | 438 kts | 191° |
| 2026-02-22 04:55 | 44.83703 | 8.18104 | 21753 ft | 441 kts | 191° |
| 2026-02-22 04:55 | 44.80685 | 8.17258 | 22187 ft | 444 kts | 191° |
| 2026-02-22 04:55 | 44.77620 | 8.16400 | 22618 ft | 446 kts | 191° |
| 2026-02-22 04:56 | 44.74602 | 8.15552 | 23029 ft | 449 kts | 192° |
| 2026-02-22 04:56 | 44.71579 | 8.14386 | 23413 ft | 452 kts | 199° |
| 2026-02-22 04:56 | 44.68670 | 8.12671 | 23814 ft | 455 kts | 206° |
| 2026-02-22 04:56 | 44.65860 | 8.10561 | 24212 ft | 457 kts | 210° |
| 2026-02-22 04:57 | 44.63161 | 8.08280 | 24593 ft | 460 kts | 212° |
| 2026-02-22 04:57 | 44.60477 | 8.05799 | 24972 ft | 463 kts | 214° |
| 2026-02-22 04:57 | 44.57800 | 8.03214 | 25337 ft | 465 kts | 214° |
| 2026-02-22 04:57 | 44.55136 | 8.00645 | 25710 ft | 468 kts | 214° |
| 2026-02-22 04:58 | 44.52443 | 7.98075 | 26060 ft | 470 kts | 214° |
| 2026-02-22 04:58 | 44.49734 | 7.95509 | 26403 ft | 473 kts | 214° |
| 2026-02-22 04:58 | 44.46996 | 7.92925 | 26739 ft | 475 kts | 214° |
| 2026-02-22 04:58 | 44.44231 | 7.90320 | 27067 ft | 477 kts | 214° |
| 2026-02-22 04:59 | 44.41465 | 7.87718 | 27386 ft | 480 kts | 214° |
| 2026-02-22 04:59 | 44.38698 | 7.85067 | 27699 ft | 482 kts | 214° |
| 2026-02-22 04:59 | 44.35944 | 7.82435 | 28000 ft | 484 kts | 214° |
| 2026-02-22 04:59 | 44.33138 | 7.79790 | 28295 ft | 486 kts | 214° |
| 2026-02-22 05:00 | 44.30334 | 7.77165 | 28579 ft | 489 kts | 214° |
| 2026-02-22 05:00 | 44.27869 | 7.74864 | 28820 ft | 490 kts | 214° |
| 2026-02-22 05:00 | 44.25026 | 7.72211 | 29079 ft | 493 kts | 214° |
| 2026-02-22 05:00 | 44.22196 | 7.69574 | 29339 ft | 494 kts | 214° |
| 2026-02-22 05:01 | 44.19303 | 7.66879 | 29670 ft | 494 kts | 214° |
| 2026-02-22 05:01 | 44.16594 | 7.64033 | 30004 ft | 493 kts | 220° |
| 2026-02-22 05:01 | 44.14058 | 7.60810 | 30100 ft | 493 kts | 224° |
| 2026-02-22 05:02 | 44.09254 | 7.53941 | 30542 ft | 494 kts | 227° |
| 2026-02-22 05:02 | 44.06958 | 7.50371 | 30982 ft | 491 kts | 229° |
| 2026-02-22 05:02 | 44.04723 | 7.46800 | 31322 ft | 489 kts | 229° |
| 2026-02-22 05:02 | 44.02492 | 7.43236 | 31622 ft | 489 kts | 229° |
| 2026-02-22 05:03 | 44.00249 | 7.39666 | 31909 ft | 488 kts | 229° |
| 2026-02-22 05:03 | 43.98043 | 7.36164 | 32127 ft | 489 kts | 229° |
| 2026-02-22 05:03 | 43.95776 | 7.32573 | 32133 ft | 487 kts | 229° |
| 2026-02-22 05:04 | 43.91357 | 7.25503 | 32130 ft | 487 kts | 230° |
| 2026-02-22 05:04 | 43.86921 | 7.18394 | 32130 ft | 487 kts | 229° |
| 2026-02-22 05:05 | 43.82434 | 7.11338 | 32130 ft | 487 kts | 229° |
| 2026-02-22 05:05 | 43.78017 | 7.04412 | 32130 ft | 487 kts | 229° |
| 2026-02-22 05:06 | 43.73660 | 6.97236 | 32130 ft | 487 kts | 234° |
| 2026-02-22 05:06 | 43.70375 | 6.89123 | 32126 ft | 487 kts | 245° |
| 2026-02-22 05:07 | 43.67899 | 6.81115 | 32130 ft | 487 kts | 248° |
| 2026-02-22 05:07 | 43.65398 | 6.72440 | 32129 ft | 487 kts | 248° |
| 2026-02-22 05:08 | 43.62837 | 6.63777 | 32130 ft | 487 kts | 248° |
| 2026-02-22 05:08 | 43.60358 | 6.55474 | 32130 ft | 487 kts | 248° |
| 2026-02-22 05:09 | 43.57792 | 6.46738 | 32130 ft | 487 kts | 249° |
| 2026-02-22 05:09 | 43.55280 | 6.38123 | 32130 ft | 487 kts | 248° |
| 2026-02-22 05:10 | 43.52676 | 6.29505 | 32130 ft | 487 kts | 247° |
| 2026-02-22 05:10 | 43.50149 | 6.21178 | 32130 ft | 487 kts | 247° |
| 2026-02-22 05:11 | 43.47552 | 6.12625 | 32130 ft | 487 kts | 247° |
| 2026-02-22 05:11 | 43.44934 | 6.04012 | 32130 ft | 487 kts | 247° |
| 2026-02-22 05:12 | 43.42311 | 5.95421 | 32130 ft | 487 kts | 247° |
| 2026-02-22 05:12 | 43.39747 | 5.87060 | 32130 ft | 487 kts | 247° |
| 2026-02-22 05:13 | 43.37109 | 5.78475 | 32130 ft | 487 kts | 247° |
| 2026-02-22 05:13 | 43.34504 | 5.69870 | 32130 ft | 487 kts | 248° |
| 2026-02-22 05:14 | 43.32439 | 5.62993 | 32130 ft | 487 kts | 247° |
| 2026-02-22 05:14 | 43.29791 | 5.54445 | 32130 ft | 487 kts | 247° |
| 2026-02-22 05:15 | 43.27126 | 5.45890 | 32130 ft | 487 kts | 247° |
| 2026-02-22 05:15 | 43.24909 | 5.38784 | 32130 ft | 487 kts | 247° |
| 2026-02-22 05:16 | 43.22806 | 5.32044 | 32130 ft | 487 kts | 246° |
| 2026-02-22 05:16 | 43.20124 | 5.23537 | 32130 ft | 487 kts | 246° |
| 2026-02-22 05:17 | 43.17441 | 5.14978 | 32130 ft | 487 kts | 247° |
| 2026-02-22 05:17 | 43.14782 | 5.06437 | 32130 ft | 487 kts | 246° |
| 2026-02-22 05:18 | 43.12588 | 4.99544 | 32130 ft | 487 kts | 246° |
| 2026-02-22 05:18 | 43.09866 | 4.91031 | 32130 ft | 487 kts | 246° |
| 2026-02-22 05:19 | 43.07103 | 4.82573 | 32129 ft | 487 kts | 242° |
| 2026-02-22 05:19 | 43.03358 | 4.75143 | 32134 ft | 487 kts | 228° |
| 2026-02-22 05:20 | 42.98489 | 4.68720 | 32127 ft | 487 kts | 221° |
| 2026-02-22 05:20 | 42.93311 | 4.62740 | 32130 ft | 487 kts | 220° |
| 2026-02-22 05:21 | 42.88178 | 4.56703 | 32130 ft | 487 kts | 221° |
| 2026-02-22 05:21 | 42.83202 | 4.50773 | 32130 ft | 487 kts | 221° |
| 2026-02-22 05:22 | 42.78088 | 4.44647 | 32130 ft | 487 kts | 221° |
| 2026-02-22 05:22 | 42.73016 | 4.38521 | 32130 ft | 487 kts | 221° |
| 2026-02-22 05:23 | 42.68086 | 4.32622 | 32130 ft | 487 kts | 221° |
| 2026-02-22 05:23 | 42.62951 | 4.26504 | 32130 ft | 487 kts | 221° |
| 2026-02-22 05:24 | 42.57854 | 4.20447 | 32130 ft | 487 kts | 221° |
| 2026-02-22 05:24 | 42.52751 | 4.14398 | 32130 ft | 487 kts | 221° |
| 2026-02-22 05:25 | 42.47810 | 4.08518 | 32131 ft | 487 kts | 221° |
| 2026-02-22 05:25 | 42.42693 | 4.02463 | 32130 ft | 487 kts | 221° |
| 2026-02-22 05:26 | 42.37571 | 3.96448 | 32130 ft | 487 kts | 221° |
| 2026-02-22 05:26 | 42.32569 | 3.90589 | 32130 ft | 487 kts | 221° |
| 2026-02-22 05:27 | 42.27436 | 3.84583 | 32130 ft | 487 kts | 221° |
| 2026-02-22 05:27 | 42.22328 | 3.78582 | 32130 ft | 487 kts | 221° |
| 2026-02-22 05:28 | 42.17383 | 3.72813 | 32130 ft | 487 kts | 221° |
| 2026-02-22 05:28 | 42.12220 | 3.66788 | 32128 ft | 487 kts | 223° |
| 2026-02-22 05:29 | 42.07880 | 3.59815 | 32131 ft | 487 kts | 238° |
| 2026-02-22 05:29 | 42.04872 | 3.51725 | 32133 ft | 487 kts | 247° |
| 2026-02-22 05:30 | 42.02338 | 3.43556 | 32131 ft | 487 kts | 246° |
| 2026-02-22 05:30 | 41.99585 | 3.35226 | 32130 ft | 487 kts | 245° |
| 2026-02-22 05:31 | 41.96807 | 3.26915 | 32130 ft | 487 kts | 246° |
| 2026-02-22 05:31 | 41.93691 | 3.19206 | 32132 ft | 487 kts | 237° |
| 2026-02-22 05:32 | 41.89708 | 3.11831 | 32130 ft | 487 kts | 232° |
| 2026-02-22 05:32 | 41.85528 | 3.04667 | 32130 ft | 487 kts | 232° |
| 2026-02-22 05:33 | 41.82083 | 2.98688 | 32130 ft | 487 kts | 232° |
| 2026-02-22 05:33 | 41.77464 | 2.90712 | 32130 ft | 487 kts | 232° |
| 2026-02-22 05:34 | 41.73442 | 2.83782 | 32130 ft | 487 kts | 232° |
| 2026-02-22 05:34 | 41.69397 | 2.76819 | 32130 ft | 487 kts | 232° |
| 2026-02-22 05:35 | 41.66007 | 2.70992 | 32130 ft | 487 kts | 232° |
| 2026-02-22 05:35 | 41.61961 | 2.64057 | 32130 ft | 487 kts | 232° |
| 2026-02-22 05:36 | 41.57915 | 2.57141 | 32130 ft | 487 kts | 232° |
| 2026-02-22 05:36 | 41.53058 | 2.48855 | 32130 ft | 487 kts | 232° |
| 2026-02-22 05:37 | 41.50044 | 2.43708 | 32129 ft | 487 kts | 232° |
| 2026-02-22 05:37 | 41.45919 | 2.36545 | 32130 ft | 487 kts | 232° |
| 2026-02-22 05:38 | 41.41737 | 2.29438 | 32130 ft | 487 kts | 232° |
| 2026-02-22 05:38 | 41.38340 | 2.23697 | 32130 ft | 487 kts | 232° |
| 2026-02-22 05:39 | 41.34691 | 2.17536 | 32130 ft | 487 kts | 232° |
| 2026-02-22 05:39 | 41.30596 | 2.10630 | 32130 ft | 487 kts | 231° |
| 2026-02-22 05:40 | 41.26187 | 2.03858 | 32132 ft | 487 kts | 227° |
| 2026-02-22 05:40 | 41.23674 | 2.00232 | 32131 ft | 487 kts | 227° |
| 2026-02-22 05:41 | 41.19078 | 1.93523 | 32130 ft | 487 kts | 228° |
| 2026-02-22 05:41 | 41.14688 | 1.87074 | 32130 ft | 487 kts | 228° |
| 2026-02-22 05:42 | 41.10241 | 1.80545 | 32130 ft | 487 kts | 228° |
| 2026-02-22 05:42 | 41.03596 | 1.70779 | 32130 ft | 487 kts | 228° |
| 2026-02-22 05:43 | 40.99042 | 1.64069 | 32130 ft | 487 kts | 228° |
| 2026-02-22 05:43 | 40.94589 | 1.57567 | 32130 ft | 487 kts | 227° |
| 2026-02-22 05:44 | 40.90033 | 1.50929 | 32130 ft | 487 kts | 227° |
| 2026-02-22 05:44 | 40.85479 | 1.44295 | 32130 ft | 487 kts | 228° |
| 2026-02-22 05:45 | 40.81043 | 1.37837 | 32130 ft | 487 kts | 227° |
| 2026-02-22 05:45 | 40.76486 | 1.31256 | 32130 ft | 487 kts | 227° |
| 2026-02-22 05:46 | 40.71908 | 1.24656 | 32130 ft | 487 kts | 227° |
| 2026-02-22 05:46 | 40.67352 | 1.18050 | 32130 ft | 487 kts | 227° |
| 2026-02-22 05:47 | 40.62883 | 1.11614 | 32130 ft | 487 kts | 227° |
| 2026-02-22 05:47 | 40.58320 | 1.05065 | 32130 ft | 487 kts | 227° |
| 2026-02-22 05:48 | 40.53737 | 0.98496 | 32130 ft | 487 kts | 227° |
| 2026-02-22 05:48 | 40.49242 | 0.92092 | 32130 ft | 487 kts | 227° |
| 2026-02-22 05:49 | 40.44757 | 0.85650 | 32131 ft | 487 kts | 227° |
| 2026-02-22 05:49 | 40.40198 | 0.79146 | 32130 ft | 487 kts | 227° |
| 2026-02-22 05:50 | 40.35590 | 0.72624 | 32130 ft | 487 kts | 227° |
| 2026-02-22 05:50 | 40.31059 | 0.66224 | 32130 ft | 487 kts | 227° |
| 2026-02-22 05:51 | 40.26447 | 0.59716 | 32130 ft | 487 kts | 227° |
| 2026-02-22 05:51 | 40.21835 | 0.53214 | 32130 ft | 487 kts | 227° |
| 2026-02-22 05:52 | 40.17442 | 0.46986 | 32130 ft | 487 kts | 227° |
| 2026-02-22 05:52 | 40.12737 | 0.40395 | 32130 ft | 487 kts | 227° |
| 2026-02-22 05:53 | 40.08212 | 0.34076 | 32130 ft | 487 kts | 227° |
| 2026-02-22 05:53 | 40.03691 | 0.27771 | 32130 ft | 487 kts | 227° |
| 2026-02-22 05:54 | 39.99339 | 0.21690 | 32130 ft | 487 kts | 227° |
| 2026-02-22 05:54 | 39.94855 | 0.15408 | 32130 ft | 487 kts | 227° |
| 2026-02-22 05:55 | 39.90197 | 0.08934 | 32130 ft | 487 kts | 227° |
| 2026-02-22 05:55 | 39.85715 | 0.02714 | 32130 ft | 487 kts | 227° |
| 2026-02-22 05:56 | 39.81053 | -0.03739 | 32130 ft | 487 kts | 226° |
| 2026-02-22 05:56 | 39.78283 | -0.07557 | 32130 ft | 487 kts | 226° |
| 2026-02-22 05:57 | 39.73610 | -0.13987 | 32130 ft | 487 kts | 226° |
| 2026-02-22 05:57 | 39.68997 | -0.20363 | 32130 ft | 487 kts | 227° |
| 2026-02-22 05:58 | 39.66213 | -0.24238 | 32130 ft | 487 kts | 227° |
| 2026-02-22 05:58 | 39.61567 | -0.30613 | 32130 ft | 487 kts | 226° |
| 2026-02-22 05:59 | 39.56902 | -0.36982 | 32130 ft | 487 kts | 226° |
| 2026-02-22 05:59 | 39.52235 | -0.43345 | 32130 ft | 487 kts | 226° |
| 2026-02-22 06:00 | 39.49496 | -0.47079 | 32130 ft | 487 kts | 227° |
| 2026-02-22 06:00 | 39.45263 | -0.53630 | 32130 ft | 487 kts | 233° |
| 2026-02-22 06:01 | 39.41385 | -0.60528 | 32130 ft | 487 kts | 234° |
| 2026-02-22 06:01 | 39.37348 | -0.67546 | 32130 ft | 487 kts | 232° |
| 2026-02-22 06:02 | 39.33215 | -0.74521 | 32130 ft | 487 kts | 232° |
| 2026-02-22 06:02 | 39.29324 | -0.81095 | 32130 ft | 487 kts | 232° |
| 2026-02-22 06:03 | 39.25457 | -0.87624 | 32130 ft | 487 kts | 232° |
| 2026-02-22 06:03 | 39.21315 | -0.94601 | 32131 ft | 487 kts | 233° |
| 2026-02-22 06:04 | 39.17218 | -1.01555 | 32130 ft | 487 kts | 232° |
| 2026-02-22 06:04 | 39.13201 | -1.08284 | 32130 ft | 487 kts | 232° |
| 2026-02-22 06:05 | 39.09060 | -1.15195 | 32130 ft | 487 kts | 232° |
| 2026-02-22 06:05 | 39.05016 | -1.21938 | 32130 ft | 487 kts | 232° |
| 2026-02-22 06:06 | 39.00996 | -1.28638 | 32130 ft | 487 kts | 232° |
| 2026-02-22 06:06 | 38.96857 | -1.35528 | 32130 ft | 487 kts | 232° |
| 2026-02-22 06:07 | 38.92709 | -1.42418 | 32130 ft | 487 kts | 232° |
| 2026-02-22 06:07 | 38.90255 | -1.46525 | 32130 ft | 487 kts | 233° |
| 2026-02-22 06:08 | 38.86352 | -1.53073 | 32131 ft | 487 kts | 232° |
| 2026-02-22 06:08 | 38.82206 | -1.59927 | 32130 ft | 487 kts | 232° |
| 2026-02-22 06:09 | 38.78043 | -1.66787 | 32130 ft | 487 kts | 232° |
| 2026-02-22 06:09 | 38.74037 | -1.73381 | 32130 ft | 487 kts | 232° |
| 2026-02-22 06:10 | 38.69874 | -1.80265 | 32130 ft | 487 kts | 232° |
| 2026-02-22 06:10 | 38.65712 | -1.87113 | 32130 ft | 487 kts | 232° |
| 2026-02-22 06:11 | 38.61638 | -1.93765 | 32130 ft | 487 kts | 232° |
| 2026-02-22 06:11 | 38.57535 | -2.00449 | 32130 ft | 487 kts | 232° |
| 2026-02-22 06:12 | 38.53339 | -2.07280 | 32130 ft | 487 kts | 232° |
| 2026-02-22 06:12 | 38.49441 | -2.13708 | 32132 ft | 487 kts | 232° |
| 2026-02-22 06:13 | 38.45385 | -2.20270 | 32130 ft | 487 kts | 232° |
| 2026-02-22 06:13 | 38.41181 | -2.27075 | 32130 ft | 487 kts | 232° |
| 2026-02-22 06:14 | 38.36986 | -2.33863 | 32130 ft | 487 kts | 232° |
| 2026-02-22 06:14 | 38.32638 | -2.40283 | 32131 ft | 487 kts | 227° |
| 2026-02-22 06:15 | 38.27902 | -2.46453 | 32128 ft | 487 kts | 225° |
| 2026-02-22 06:15 | 38.23172 | -2.52635 | 32130 ft | 487 kts | 226° |
| 2026-02-22 06:16 | 38.18795 | -2.58459 | 32130 ft | 487 kts | 226° |
| 2026-02-22 06:16 | 38.14122 | -2.64773 | 32130 ft | 487 kts | 226° |
| 2026-02-22 06:17 | 38.09580 | -2.70846 | 32130 ft | 487 kts | 226° |
| 2026-02-22 06:17 | 38.05181 | -2.76681 | 32130 ft | 487 kts | 226° |
| 2026-02-22 06:18 | 38.00589 | -2.82763 | 32130 ft | 487 kts | 226° |
| 2026-02-22 06:18 | 37.96014 | -2.88817 | 32130 ft | 487 kts | 226° |
| 2026-02-22 06:19 | 37.91471 | -2.94846 | 32130 ft | 487 kts | 226° |
| 2026-02-22 06:19 | 37.86909 | -3.00839 | 32130 ft | 487 kts | 226° |
| 2026-02-22 06:20 | 37.82203 | -3.06997 | 32130 ft | 487 kts | 226° |
| 2026-02-22 06:20 | 37.78259 | -3.12151 | 32130 ft | 487 kts | 226° |
| 2026-02-22 06:21 | 37.73573 | -3.18272 | 32130 ft | 487 kts | 226° |
| 2026-02-22 06:21 | 37.68963 | -3.24306 | 32130 ft | 487 kts | 226° |
| 2026-02-22 06:22 | 37.64241 | -3.30475 | 32130 ft | 487 kts | 226° |
| 2026-02-22 06:22 | 37.59542 | -3.36646 | 32131 ft | 487 kts | 226° |
| 2026-02-22 06:23 | 37.55012 | -3.42594 | 32130 ft | 487 kts | 226° |
| 2026-02-22 06:23 | 37.50266 | -3.48761 | 32130 ft | 487 kts | 226° |
| 2026-02-22 06:24 | 37.45546 | -3.54880 | 32130 ft | 487 kts | 226° |
| 2026-02-22 06:24 | 37.40825 | -3.60993 | 32130 ft | 487 kts | 226° |
| 2026-02-22 06:25 | 37.36278 | -3.66871 | 32130 ft | 487 kts | 226° |
| 2026-02-22 06:25 | 37.31542 | -3.72964 | 32130 ft | 487 kts | 225° |
| 2026-02-22 06:26 | 37.26801 | -3.79051 | 32130 ft | 487 kts | 225° |
| 2026-02-22 06:26 | 37.22333 | -3.84779 | 32130 ft | 487 kts | 225° |
| 2026-02-22 06:27 | 37.17584 | -3.90857 | 32130 ft | 487 kts | 225° |
| 2026-02-22 06:27 | 37.12853 | -3.96940 | 32130 ft | 487 kts | 226° |
| 2026-02-22 06:28 | 37.08237 | -4.02881 | 32130 ft | 487 kts | 225° |
| 2026-02-22 06:28 | 37.03500 | -4.08940 | 32129 ft | 487 kts | 226° |
| 2026-02-22 06:29 | 36.98770 | -4.15010 | 32130 ft | 487 kts | 225° |
| 2026-02-22 06:29 | 36.94129 | -4.20900 | 32130 ft | 487 kts | 225° |
| 2026-02-22 06:30 | 36.89340 | -4.26961 | 32130 ft | 487 kts | 225° |
| 2026-02-22 06:30 | 36.84623 | -4.32954 | 32128 ft | 487 kts | 227° |
| 2026-02-22 06:31 | 36.80730 | -4.39838 | 32132 ft | 487 kts | 243° |
| 2026-02-22 06:31 | 36.79115 | -4.44236 | 32130 ft | 487 kts | 247° |
| 2026-02-22 06:32 | 36.76864 | -4.51933 | 32131 ft | 487 kts | 251° |
| 2026-02-22 06:32 | 36.74690 | -4.59783 | 32130 ft | 487 kts | 250° |
| 2026-02-22 06:33 | 36.72402 | -4.67673 | 32130 ft | 487 kts | 250° |
| 2026-02-22 06:33 | 36.70122 | -4.75412 | 32130 ft | 487 kts | 250° |
| 2026-02-22 06:34 | 36.67804 | -4.83394 | 32130 ft | 487 kts | 250° |
| 2026-02-22 06:34 | 36.65489 | -4.91314 | 32130 ft | 487 kts | 250° |
| 2026-02-22 06:35 | 36.63150 | -4.99230 | 32130 ft | 487 kts | 250° |
| 2026-02-22 06:35 | 36.60883 | -5.06927 | 32130 ft | 487 kts | 250° |
| 2026-02-22 06:36 | 36.58550 | -5.14833 | 32130 ft | 487 kts | 250° |
| 2026-02-22 06:36 | 36.56182 | -5.22726 | 32130 ft | 487 kts | 249° |
| 2026-02-22 06:37 | 36.53851 | -5.30472 | 32130 ft | 487 kts | 249° |
| 2026-02-22 06:37 | 36.51497 | -5.38276 | 32130 ft | 487 kts | 249° |
| 2026-02-22 06:38 | 36.48554 | -5.45862 | 32130 ft | 487 kts | 241° |
| 2026-02-22 06:38 | 36.45110 | -5.53110 | 32131 ft | 487 kts | 239° |
| 2026-02-22 06:39 | 36.41703 | -5.60185 | 32130 ft | 487 kts | 239° |
| 2026-02-22 06:39 | 36.38276 | -5.67468 | 32129 ft | 487 kts | 240° |
| 2026-02-22 06:40 | 36.34853 | -5.74712 | 32130 ft | 487 kts | 239° |
| 2026-02-22 06:40 | 36.31421 | -5.81895 | 32130 ft | 487 kts | 239° |
| 2026-02-22 06:41 | 36.28022 | -5.88995 | 32130 ft | 487 kts | 239° |
| 2026-02-22 06:41 | 36.24559 | -5.96217 | 32130 ft | 487 kts | 239° |
| 2026-02-22 06:42 | 36.20732 | -6.03139 | 32130 ft | 487 kts | 233° |
| 2026-02-22 06:42 | 36.16641 | -6.09577 | 32129 ft | 487 kts | 231° |
| 2026-02-22 06:43 | 36.12473 | -6.16188 | 32130 ft | 487 kts | 232° |
| 2026-02-22 06:43 | 36.08390 | -6.22880 | 32130 ft | 487 kts | 233° |
| 2026-02-22 06:44 | 36.04285 | -6.29536 | 32130 ft | 487 kts | 232° |
| 2026-02-22 06:44 | 36.00286 | -6.35984 | 32130 ft | 487 kts | 232° |
| 2026-02-22 06:45 | 35.96096 | -6.42731 | 32130 ft | 487 kts | 232° |
| 2026-02-22 06:45 | 35.92002 | -6.49321 | 32130 ft | 487 kts | 232° |
| 2026-02-22 06:46 | 35.87973 | -6.55758 | 32130 ft | 487 kts | 232° |
| 2026-02-22 06:47 | 35.81760 | -6.65695 | 32129 ft | 487 kts | 232° |
| 2026-02-22 06:47 | 35.77608 | -6.72296 | 32130 ft | 487 kts | 232° |
| 2026-02-22 06:48 | 35.73557 | -6.78722 | 32130 ft | 487 kts | 232° |
| 2026-02-22 06:48 | 35.69413 | -6.85292 | 32130 ft | 487 kts | 232° |
| 2026-02-22 06:49 | 35.65254 | -6.91875 | 32130 ft | 487 kts | 232° |
| 2026-02-22 06:49 | 35.61188 | -6.98316 | 32130 ft | 487 kts | 232° |
| 2026-02-22 06:50 | 35.57059 | -7.04926 | 32130 ft | 487 kts | 232° |
| 2026-02-22 06:50 | 35.52919 | -7.11500 | 32130 ft | 487 kts | 232° |
| 2026-02-22 06:51 | 35.48876 | -7.17890 | 32130 ft | 487 kts | 232° |
| 2026-02-22 06:51 | 35.44796 | -7.24320 | 32130 ft | 487 kts | 232° |
| 2026-02-22 06:52 | 35.40734 | -7.30709 | 32130 ft | 487 kts | 232° |
| 2026-02-22 06:52 | 35.36565 | -7.37254 | 32130 ft | 487 kts | 232° |
| 2026-02-22 06:53 | 35.32577 | -7.43502 | 32130 ft | 487 kts | 232° |
| 2026-02-22 06:53 | 35.28478 | -7.49913 | 32130 ft | 487 kts | 232° |
| 2026-02-22 06:54 | 35.24300 | -7.56435 | 32130 ft | 487 kts | 232° |
| 2026-02-22 06:54 | 35.20205 | -7.62816 | 32130 ft | 487 kts | 232° |
| 2026-02-22 06:55 | 35.16031 | -7.69308 | 32130 ft | 487 kts | 232° |
| 2026-02-22 06:55 | 35.11845 | -7.75807 | 32130 ft | 487 kts | 232° |
| 2026-02-22 06:56 | 35.07746 | -7.82158 | 32130 ft | 487 kts | 232° |
| 2026-02-22 06:56 | 35.03549 | -7.88650 | 32130 ft | 487 kts | 232° |
| 2026-02-22 06:57 | 34.99425 | -7.95017 | 32130 ft | 487 kts | 232° |
| 2026-02-22 06:57 | 34.95249 | -8.01453 | 32130 ft | 487 kts | 231° |
| 2026-02-22 06:58 | 34.91165 | -8.07736 | 32130 ft | 487 kts | 231° |
| 2026-02-22 06:58 | 34.86944 | -8.14217 | 32130 ft | 487 kts | 231° |
| 2026-02-22 06:59 | 34.82730 | -8.20676 | 32130 ft | 487 kts | 231° |
| 2026-02-22 06:59 | 34.78604 | -8.26989 | 32130 ft | 487 kts | 231° |
| 2026-02-22 07:00 | 34.74427 | -8.33368 | 32130 ft | 487 kts | 231° |
| 2026-02-22 07:00 | 34.70167 | -8.39863 | 32130 ft | 487 kts | 231° |
| 2026-02-22 07:01 | 34.65938 | -8.46298 | 32130 ft | 487 kts | 231° |
| 2026-02-22 07:01 | 34.61839 | -8.52567 | 32130 ft | 487 kts | 231° |
| 2026-02-22 07:02 | 34.57606 | -8.58991 | 32130 ft | 486 kts | 231° |
| 2026-02-22 07:02 | 34.53364 | -8.65394 | 32130 ft | 487 kts | 231° |
| 2026-02-22 07:03 | 34.49210 | -8.71654 | 32130 ft | 486 kts | 231° |
| 2026-02-22 07:03 | 34.44877 | -8.77939 | 32132 ft | 486 kts | 226° |
| 2026-02-22 07:04 | 34.39993 | -8.83377 | 32129 ft | 487 kts | 220° |
| 2026-02-22 07:04 | 34.34884 | -8.88275 | 32130 ft | 486 kts | 217° |
| 2026-02-22 07:05 | 34.29445 | -8.93318 | 32130 ft | 486 kts | 218° |
| 2026-02-22 07:05 | 34.24092 | -8.98372 | 32130 ft | 486 kts | 218° |
| 2026-02-22 07:06 | 34.18905 | -9.03301 | 32130 ft | 486 kts | 218° |
| 2026-02-22 07:06 | 34.13734 | -9.08258 | 32130 ft | 486 kts | 218° |
| 2026-02-22 07:07 | 34.08410 | -9.13358 | 32130 ft | 486 kts | 218° |
| 2026-02-22 07:07 | 34.03099 | -9.18422 | 32130 ft | 486 kts | 218° |
| 2026-02-22 07:08 | 33.97782 | -9.23478 | 32130 ft | 486 kts | 218° |
| 2026-02-22 07:08 | 33.93453 | -9.27587 | 32130 ft | 486 kts | 218° |
| 2026-02-22 07:09 | 33.88128 | -9.32634 | 32130 ft | 486 kts | 218° |
| 2026-02-22 07:09 | 33.82807 | -9.37668 | 32130 ft | 486 kts | 218° |
| 2026-02-22 07:10 | 33.77640 | -9.42548 | 32130 ft | 486 kts | 218° |
| 2026-02-22 07:10 | 33.72304 | -9.47581 | 32130 ft | 486 kts | 218° |
| 2026-02-22 07:11 | 33.66959 | -9.52613 | 32130 ft | 486 kts | 218° |
| 2026-02-22 07:11 | 33.61781 | -9.57481 | 32130 ft | 486 kts | 218° |
| 2026-02-22 07:12 | 33.56588 | -9.62355 | 32130 ft | 486 kts | 218° |
| 2026-02-22 07:12 | 33.51250 | -9.67357 | 32130 ft | 486 kts | 218° |
| 2026-02-22 07:13 | 33.45912 | -9.72351 | 32130 ft | 486 kts | 218° |
| 2026-02-22 07:13 | 33.40772 | -9.77152 | 32130 ft | 486 kts | 218° |
| 2026-02-22 07:14 | 33.35378 | -9.82182 | 32130 ft | 486 kts | 218° |
| 2026-02-22 07:14 | 33.30035 | -9.87158 | 32130 ft | 486 kts | 218° |
| 2026-02-22 07:15 | 33.24695 | -9.92141 | 32130 ft | 486 kts | 218° |
| 2026-02-22 07:15 | 33.19488 | -9.96985 | 32130 ft | 486 kts | 218° |
| 2026-02-22 07:16 | 33.14114 | -10.01956 | 32130 ft | 486 kts | 218° |
| 2026-02-22 07:16 | 33.08884 | -10.06786 | 32130 ft | 486 kts | 218° |
| 2026-02-22 07:17 | 33.03707 | -10.11562 | 32130 ft | 486 kts | 218° |
| 2026-02-22 07:17 | 32.98332 | -10.16513 | 32130 ft | 486 kts | 218° |
| 2026-02-22 07:18 | 32.92970 | -10.21436 | 32130 ft | 486 kts | 218° |
| 2026-02-22 07:18 | 32.87602 | -10.26357 | 32130 ft | 486 kts | 217° |
| 2026-02-22 07:19 | 32.82341 | -10.31171 | 32130 ft | 486 kts | 217° |
| 2026-02-22 07:19 | 32.76982 | -10.36067 | 32130 ft | 486 kts | 217° |
| 2026-02-22 07:20 | 32.71615 | -10.40989 | 32130 ft | 486 kts | 218° |
| 2026-02-22 07:20 | 32.66412 | -10.45769 | 32130 ft | 486 kts | 218° |
| 2026-02-22 07:21 | 32.61073 | -10.50648 | 32130 ft | 486 kts | 217° |
| 2026-02-22 07:21 | 32.55693 | -10.55550 | 32130 ft | 486 kts | 217° |
| 2026-02-22 07:22 | 32.50319 | -10.60438 | 32130 ft | 486 kts | 217° |
| 2026-02-22 07:22 | 32.45136 | -10.65144 | 32130 ft | 486 kts | 217° |
| 2026-02-22 07:23 | 32.39741 | -10.70036 | 32130 ft | 486 kts | 217° |
| 2026-02-22 07:23 | 32.34367 | -10.74900 | 32130 ft | 486 kts | 217° |
| 2026-02-22 07:24 | 32.29228 | -10.79545 | 32130 ft | 486 kts | 217° |
| 2026-02-22 07:24 | 32.23924 | -10.84332 | 32130 ft | 486 kts | 217° |
| 2026-02-22 07:25 | 32.18515 | -10.89206 | 32130 ft | 486 kts | 217° |
| 2026-02-22 07:25 | 32.13162 | -10.94023 | 32130 ft | 486 kts | 217° |
| 2026-02-22 07:26 | 32.07776 | -10.98861 | 32130 ft | 486 kts | 217° |
| 2026-02-22 07:26 | 32.02584 | -11.03519 | 32130 ft | 486 kts | 217° |
| 2026-02-22 07:27 | 31.97208 | -11.08359 | 32130 ft | 486 kts | 217° |
| 2026-02-22 07:27 | 31.91821 | -11.13178 | 32130 ft | 486 kts | 217° |
| 2026-02-22 07:28 | 31.86550 | -11.17876 | 32130 ft | 486 kts | 217° |
| 2026-02-22 07:28 | 31.81168 | -11.22668 | 32130 ft | 486 kts | 217° |
| 2026-02-22 07:29 | 31.75982 | -11.27280 | 32130 ft | 486 kts | 217° |
| 2026-02-22 07:29 | 31.70613 | -11.32058 | 32130 ft | 486 kts | 217° |
| 2026-02-22 07:30 | 31.65216 | -11.36853 | 32130 ft | 486 kts | 217° |
| 2026-02-22 07:30 | 31.59782 | -11.41671 | 32130 ft | 486 kts | 217° |
| 2026-02-22 07:31 | 31.54379 | -11.46456 | 32130 ft | 486 kts | 217° |
| 2026-02-22 07:31 | 31.49256 | -11.50985 | 32130 ft | 486 kts | 217° |
| 2026-02-22 07:32 | 31.43859 | -11.55787 | 32130 ft | 486 kts | 217° |
| 2026-02-22 07:32 | 31.38466 | -11.60574 | 32130 ft | 486 kts | 217° |
| 2026-02-22 07:33 | 31.33093 | -11.65323 | 32130 ft | 486 kts | 217° |
| 2026-02-22 07:33 | 31.27791 | -11.69998 | 32130 ft | 486 kts | 217° |
| 2026-02-22 07:34 | 31.22519 | -11.74639 | 32130 ft | 486 kts | 217° |
| 2026-02-22 07:34 | 31.17111 | -11.79393 | 32130 ft | 486 kts | 217° |
| 2026-02-22 07:35 | 31.11903 | -11.83964 | 32130 ft | 486 kts | 217° |
| 2026-02-22 07:35 | 31.06454 | -11.88739 | 32130 ft | 486 kts | 217° |
| 2026-02-22 07:36 | 31.01077 | -11.93446 | 32130 ft | 486 kts | 217° |
| 2026-02-22 07:36 | 30.95926 | -11.97948 | 32130 ft | 486 kts | 217° |
| 2026-02-22 07:37 | 30.90365 | -12.02800 | 32130 ft | 486 kts | 217° |
| 2026-02-22 07:37 | 30.84983 | -12.07491 | 32130 ft | 486 kts | 217° |
| 2026-02-22 07:38 | 30.79561 | -12.12209 | 32130 ft | 486 kts | 217° |
| 2026-02-22 07:38 | 30.74242 | -12.16846 | 32130 ft | 486 kts | 217° |
| 2026-02-22 07:39 | 30.68822 | -12.21559 | 32130 ft | 486 kts | 217° |
| 2026-02-22 07:39 | 30.63393 | -12.26254 | 32130 ft | 486 kts | 217° |
| 2026-02-22 07:40 | 30.58147 | -12.30786 | 32130 ft | 486 kts | 217° |
| 2026-02-22 07:40 | 30.52724 | -12.35465 | 32130 ft | 486 kts | 217° |
| 2026-02-22 07:41 | 30.47286 | -12.40144 | 32130 ft | 486 kts | 216° |
| 2026-02-22 07:41 | 30.41947 | -12.44721 | 32130 ft | 486 kts | 216° |
| 2026-02-22 07:42 | 30.36602 | -12.49298 | 32130 ft | 486 kts | 216° |
| 2026-02-22 07:42 | 30.28543 | -12.56235 | 32130 ft | 486 kts | 216° |
| 2026-02-22 07:43 | 30.23269 | -12.60737 | 32130 ft | 486 kts | 216° |
| 2026-02-22 07:43 | 30.17804 | -12.65395 | 32130 ft | 486 kts | 216° |
| 2026-02-22 07:44 | 30.12355 | -12.70033 | 32130 ft | 486 kts | 216° |
| 2026-02-22 07:44 | 30.07075 | -12.74538 | 32130 ft | 486 kts | 216° |
| 2026-02-22 07:45 | 30.01634 | -12.79183 | 32130 ft | 486 kts | 216° |
| 2026-02-22 07:45 | 29.96193 | -12.83819 | 32130 ft | 486 kts | 216° |
| 2026-02-22 07:46 | 29.90747 | -12.88454 | 32130 ft | 486 kts | 216° |
| 2026-02-22 07:46 | 29.85420 | -12.92980 | 32130 ft | 486 kts | 216° |
| 2026-02-22 07:47 | 29.79964 | -12.97633 | 32130 ft | 486 kts | 217° |
| 2026-02-22 07:47 | 29.74532 | -13.02267 | 32130 ft | 486 kts | 216° |
| 2026-02-22 07:48 | 29.69218 | -13.06781 | 32130 ft | 486 kts | 216° |
| 2026-02-22 07:48 | 29.63879 | -13.11305 | 32130 ft | 486 kts | 216° |
| 2026-02-22 07:49 | 29.58423 | -13.15921 | 32130 ft | 486 kts | 216° |
| 2026-02-22 07:49 | 29.53008 | -13.20496 | 32130 ft | 486 kts | 216° |
| 2026-02-22 07:50 | 29.47654 | -13.25014 | 32130 ft | 486 kts | 216° |
| 2026-02-22 07:50 | 29.42197 | -13.29614 | 32129 ft | 486 kts | 216° |
| 2026-02-22 07:51 | 29.36752 | -13.34216 | 32130 ft | 486 kts | 216° |
| 2026-02-22 07:51 | 29.32218 | -13.38023 | 32130 ft | 486 kts | 216° |
| 2026-02-22 07:52 | 29.25993 | -13.43238 | 32130 ft | 486 kts | 216° |
| 2026-02-22 07:52 | 29.21420 | -13.47066 | 32130 ft | 486 kts | 216° |
| 2026-02-22 07:53 | 29.16368 | -13.52190 | 32130 ft | 486 kts | 229° |
| 2026-02-22 07:53 | 29.12468 | -13.58225 | 32132 ft | 486 kts | 236° |
| 2026-02-22 07:54 | 29.08958 | -13.64583 | 32131 ft | 486 kts | 238° |
| 2026-02-22 07:54 | 29.05373 | -13.71142 | 32130 ft | 486 kts | 238° |
| 2026-02-22 07:55 | 29.01746 | -13.77667 | 32130 ft | 486 kts | 237° |
| 2026-02-22 07:55 | 28.98191 | -13.84018 | 32130 ft | 486 kts | 237° |
| 2026-02-22 07:56 | 28.94549 | -13.90586 | 32130 ft | 486 kts | 237° |
| 2026-02-22 07:56 | 28.91039 | -13.96880 | 32130 ft | 486 kts | 237° |
| 2026-02-22 07:57 | 28.87481 | -14.03227 | 32130 ft | 486 kts | 237° |
| 2026-02-22 07:57 | 28.83849 | -14.09691 | 32130 ft | 486 kts | 237° |
| 2026-02-22 07:58 | 28.80319 | -14.15960 | 32130 ft | 486 kts | 237° |
| 2026-02-22 07:58 | 28.76656 | -14.22454 | 32130 ft | 486 kts | 237° |
| 2026-02-22 07:59 | 28.72991 | -14.28943 | 32130 ft | 486 kts | 237° |
| 2026-02-22 07:59 | 28.69329 | -14.35415 | 32130 ft | 486 kts | 237° |
| 2026-02-22 08:00 | 28.65745 | -14.41741 | 32130 ft | 486 kts | 237° |
| 2026-02-22 08:00 | 28.62078 | -14.48203 | 32130 ft | 486 kts | 237° |
| 2026-02-22 08:01 | 28.58407 | -14.54662 | 32130 ft | 486 kts | 237° |
| 2026-02-22 08:01 | 28.54852 | -14.60908 | 32130 ft | 486 kts | 237° |
| 2026-02-22 08:02 | 28.51256 | -14.67216 | 32130 ft | 486 kts | 237° |
| 2026-02-22 08:02 | 28.47546 | -14.73714 | 32130 ft | 486 kts | 237° |
| 2026-02-22 08:03 | 28.43886 | -14.80116 | 32130 ft | 486 kts | 237° |
| 2026-02-22 08:03 | 28.40299 | -14.86380 | 32130 ft | 486 kts | 237° |
| 2026-02-22 08:04 | 28.36607 | -14.92819 | 32130 ft | 486 kts | 237° |
| 2026-02-22 08:04 | 28.32914 | -14.99248 | 32130 ft | 486 kts | 237° |
| 2026-02-22 08:05 | 28.29240 | -15.05636 | 32130 ft | 486 kts | 237° |
| 2026-02-22 08:05 | 28.25616 | -15.11926 | 32130 ft | 486 kts | 237° |
| 2026-02-22 08:06 | 28.21925 | -15.18370 | 32130 ft | 486 kts | 237° |
| 2026-02-22 08:06 | 28.18215 | -15.24784 | 32130 ft | 486 kts | 237° |
| 2026-02-22 08:07 | 28.14591 | -15.31032 | 32130 ft | 486 kts | 237° |
| 2026-02-22 08:07 | 28.10959 | -15.37287 | 32130 ft | 486 kts | 237° |
| 2026-02-22 08:08 | 28.06666 | -15.43221 | 32130 ft | 486 kts | 223° |
| 2026-02-22 08:08 | 28.01268 | -15.47873 | 32399 ft | 489 kts | 213° |
| 2026-02-22 08:09 | 27.98505 | -15.49853 | 32748 ft | 488 kts | 212° |
| 2026-02-22 08:09 | 27.95653 | -15.51853 | 33068 ft | 487 kts | 212° |
| 2026-02-22 08:09 | 27.92764 | -15.53920 | 33379 ft | 486 kts | 212° |
| 2026-02-22 08:09 | 27.89925 | -15.55986 | 33667 ft | 485 kts | 213° |
| 2026-02-22 08:10 | 27.87089 | -15.58062 | 33947 ft | 485 kts | 213° |
| 2026-02-22 08:10 | 27.84262 | -15.60132 | 34117 ft | 485 kts | 213° |
| 2026-02-22 08:10 | 27.78713 | -15.64191 | 34131 ft | 483 kts | 213° |
| 2026-02-22 08:11 | 27.73136 | -15.68267 | 34130 ft | 483 kts | 213° |
| 2026-02-22 08:11 | 27.67475 | -15.72406 | 34130 ft | 483 kts | 213° |
| 2026-02-22 08:12 | 27.61823 | -15.76533 | 34130 ft | 483 kts | 213° |
| 2026-02-22 08:12 | 27.56304 | -15.80557 | 34130 ft | 483 kts | 213° |
| 2026-02-22 08:13 | 27.50645 | -15.84678 | 34130 ft | 483 kts | 213° |
| 2026-02-22 08:13 | 27.44993 | -15.88790 | 34130 ft | 483 kts | 213° |
| 2026-02-22 08:14 | 27.39496 | -15.92805 | 34130 ft | 483 kts | 213° |
| 2026-02-22 08:14 | 27.33846 | -15.96925 | 34130 ft | 483 kts | 213° |
| 2026-02-22 08:15 | 27.28206 | -16.01024 | 34130 ft | 483 kts | 213° |
| 2026-02-22 08:15 | 27.22552 | -16.05125 | 34130 ft | 483 kts | 213° |
| 2026-02-22 08:16 | 27.17016 | -16.09135 | 34130 ft | 483 kts | 213° |
| 2026-02-22 08:16 | 27.11363 | -16.13242 | 34130 ft | 483 kts | 213° |
| 2026-02-22 08:17 | 27.05861 | -16.17217 | 34130 ft | 483 kts | 213° |
| 2026-02-22 08:17 | 27.00199 | -16.21297 | 34130 ft | 483 kts | 213° |
| 2026-02-22 08:18 | 26.94684 | -16.25268 | 34130 ft | 483 kts | 213° |
| 2026-02-22 08:18 | 26.89025 | -16.29339 | 34130 ft | 483 kts | 212° |
| 2026-02-22 08:19 | 26.83350 | -16.33398 | 34130 ft | 483 kts | 212° |
| 2026-02-22 08:19 | 26.77783 | -16.37373 | 34130 ft | 483 kts | 212° |
| 2026-02-22 08:20 | 26.72131 | -16.41405 | 34130 ft | 483 kts | 212° |
| 2026-02-22 08:20 | 26.66461 | -16.45446 | 34130 ft | 483 kts | 212° |
| 2026-02-22 08:21 | 26.58089 | -16.51418 | 34130 ft | 483 kts | 213° |
| 2026-02-22 08:22 | 26.52422 | -16.55466 | 34130 ft | 483 kts | 212° |
| 2026-02-22 08:22 | 26.46743 | -16.59507 | 34130 ft | 483 kts | 212° |
| 2026-02-22 08:23 | 26.41072 | -16.63551 | 34130 ft | 483 kts | 212° |
| 2026-02-22 08:23 | 26.35545 | -16.67468 | 34130 ft | 483 kts | 212° |
| 2026-02-22 08:24 | 26.29869 | -16.71483 | 34130 ft | 483 kts | 212° |
| 2026-02-22 08:24 | 26.24184 | -16.75501 | 34130 ft | 483 kts | 212° |
| 2026-02-22 08:25 | 26.18627 | -16.79429 | 34130 ft | 483 kts | 212° |
| 2026-02-22 08:25 | 26.12960 | -16.83440 | 34130 ft | 483 kts | 212° |
| 2026-02-22 08:26 | 26.07285 | -16.87452 | 34130 ft | 483 kts | 212° |
| 2026-02-22 08:26 | 26.01820 | -16.91311 | 34130 ft | 483 kts | 212° |
| 2026-02-22 08:27 | 25.96127 | -16.95326 | 34130 ft | 483 kts | 212° |
| 2026-02-22 08:27 | 25.90558 | -16.99250 | 34130 ft | 483 kts | 212° |
| 2026-02-22 08:28 | 25.85063 | -17.03144 | 34130 ft | 483 kts | 212° |
| 2026-02-22 08:28 | 25.79387 | -17.07151 | 34130 ft | 483 kts | 212° |
| 2026-02-22 08:29 | 25.73703 | -17.11153 | 34130 ft | 483 kts | 212° |
| 2026-02-22 08:29 | 25.68014 | -17.15150 | 34130 ft | 483 kts | 212° |
| 2026-02-22 08:30 | 25.62541 | -17.18993 | 34130 ft | 483 kts | 212° |
| 2026-02-22 08:30 | 25.56850 | -17.22982 | 34130 ft | 483 kts | 212° |
| 2026-02-22 08:31 | 25.51303 | -17.26867 | 34130 ft | 483 kts | 212° |
| 2026-02-22 08:31 | 25.45628 | -17.30838 | 34130 ft | 483 kts | 212° |
| 2026-02-22 08:32 | 25.40065 | -17.34725 | 34130 ft | 483 kts | 212° |
| 2026-02-22 08:32 | 25.34363 | -17.38705 | 34130 ft | 483 kts | 212° |
| 2026-02-22 08:33 | 25.28673 | -17.42673 | 34130 ft | 483 kts | 212° |
| 2026-02-22 08:33 | 25.22976 | -17.46655 | 34130 ft | 483 kts | 212° |
| 2026-02-22 08:34 | 25.17401 | -17.50533 | 34130 ft | 483 kts | 212° |
| 2026-02-22 08:34 | 25.11745 | -17.54458 | 34130 ft | 483 kts | 212° |
| 2026-02-22 08:35 | 25.06046 | -17.58410 | 34130 ft | 483 kts | 212° |
| 2026-02-22 08:35 | 25.00473 | -17.62270 | 34130 ft | 483 kts | 212° |
| 2026-02-22 08:36 | 24.94755 | -17.66217 | 34130 ft | 483 kts | 212° |
| 2026-02-22 08:36 | 24.89052 | -17.70143 | 34130 ft | 483 kts | 212° |
| 2026-02-22 08:37 | 24.83336 | -17.74075 | 34130 ft | 483 kts | 212° |
| 2026-02-22 08:37 | 24.78734 | -17.77237 | 34130 ft | 483 kts | 212° |
| 2026-02-22 08:38 | 24.72079 | -17.81805 | 34130 ft | 483 kts | 212° |
| 2026-02-22 08:38 | 24.66378 | -17.85736 | 34130 ft | 483 kts | 212° |
| 2026-02-22 08:39 | 24.61634 | -17.89004 | 34130 ft | 483 kts | 212° |
| 2026-02-22 08:39 | 24.56054 | -17.92835 | 34130 ft | 483 kts | 212° |
| 2026-02-22 08:40 | 24.50343 | -17.96749 | 34130 ft | 483 kts | 212° |
| 2026-02-22 08:40 | 24.44635 | -18.00656 | 34130 ft | 483 kts | 212° |
| 2026-02-22 08:41 | 24.39056 | -18.04470 | 34130 ft | 483 kts | 212° |
| 2026-02-22 08:41 | 24.33462 | -18.08290 | 34130 ft | 483 kts | 212° |
| 2026-02-22 08:42 | 24.27898 | -18.12085 | 34130 ft | 483 kts | 212° |
| 2026-02-22 08:42 | 24.22455 | -18.15794 | 34130 ft | 483 kts | 212° |
| 2026-02-22 08:43 | 24.16717 | -18.19699 | 34130 ft | 483 kts | 212° |
| 2026-02-22 08:43 | 24.11205 | -18.23448 | 34130 ft | 483 kts | 212° |
| 2026-02-22 08:44 | 24.05491 | -18.27329 | 34130 ft | 483 kts | 212° |
| 2026-02-22 08:44 | 23.99767 | -18.31213 | 34130 ft | 483 kts | 212° |
| 2026-02-22 08:45 | 23.94203 | -18.34985 | 34130 ft | 483 kts | 212° |
| 2026-02-22 08:45 | 23.88470 | -18.38867 | 34130 ft | 483 kts | 212° |
| 2026-02-22 08:46 | 23.83021 | -18.42553 | 34130 ft | 483 kts | 212° |
| 2026-02-22 08:46 | 23.77449 | -18.46318 | 34130 ft | 483 kts | 212° |
| 2026-02-22 08:47 | 23.71858 | -18.50093 | 34130 ft | 483 kts | 212° |
| 2026-02-22 08:47 | 23.66208 | -18.53903 | 34130 ft | 483 kts | 212° |
| 2026-02-22 08:48 | 23.60539 | -18.57722 | 34130 ft | 483 kts | 212° |
| 2026-02-22 08:48 | 23.54813 | -18.61575 | 34130 ft | 483 kts | 212° |
| 2026-02-22 08:49 | 23.49086 | -18.65425 | 34130 ft | 483 kts | 212° |
| 2026-02-22 08:49 | 23.43509 | -18.69171 | 34130 ft | 483 kts | 212° |
| 2026-02-22 08:50 | 23.37821 | -18.72987 | 34130 ft | 483 kts | 212° |
| 2026-02-22 08:50 | 23.32092 | -18.76827 | 34130 ft | 483 kts | 212° |
| 2026-02-22 08:51 | 23.26360 | -18.80665 | 34130 ft | 483 kts | 211° |
| 2026-02-22 08:51 | 23.20763 | -18.84408 | 34130 ft | 483 kts | 211° |
| 2026-02-22 08:52 | 23.15027 | -18.88241 | 34130 ft | 483 kts | 211° |
| 2026-02-22 08:52 | 23.09324 | -18.92048 | 34130 ft | 483 kts | 211° |
| 2026-02-22 08:53 | 23.03785 | -18.95742 | 34130 ft | 483 kts | 211° |
| 2026-02-22 08:53 | 22.98030 | -18.99576 | 34130 ft | 483 kts | 211° |
| 2026-02-22 08:54 | 22.92297 | -19.03392 | 34130 ft | 483 kts | 211° |
| 2026-02-22 08:54 | 22.86555 | -19.07209 | 34130 ft | 483 kts | 211° |
| 2026-02-22 08:55 | 22.80958 | -19.10927 | 34130 ft | 483 kts | 211° |
| 2026-02-22 08:55 | 22.75254 | -19.14712 | 34130 ft | 483 kts | 211° |
| 2026-02-22 08:56 | 22.69509 | -19.18520 | 34130 ft | 483 kts | 211° |
| 2026-02-22 08:56 | 22.63889 | -19.22242 | 34130 ft | 483 kts | 211° |
| 2026-02-22 08:57 | 22.58114 | -19.26063 | 34130 ft | 483 kts | 211° |
| 2026-02-22 08:57 | 22.52405 | -19.29836 | 34130 ft | 483 kts | 211° |
| 2026-02-22 08:58 | 22.46802 | -19.33536 | 34130 ft | 483 kts | 211° |
| 2026-02-22 08:58 | 22.41024 | -19.37348 | 34130 ft | 483 kts | 211° |
| 2026-02-22 08:59 | 22.35270 | -19.41142 | 34130 ft | 483 kts | 211° |
| 2026-02-22 08:59 | 22.29566 | -19.44909 | 34130 ft | 484 kts | 211° |
| 2026-02-22 09:00 | 22.23933 | -19.48612 | 34130 ft | 483 kts | 211° |
| 2026-02-22 09:00 | 22.18164 | -19.52399 | 34130 ft | 483 kts | 211° |
| 2026-02-22 09:01 | 22.12411 | -19.56172 | 34130 ft | 483 kts | 211° |
| 2026-02-22 09:01 | 22.06835 | -19.59827 | 34130 ft | 483 kts | 211° |
| 2026-02-22 09:02 | 22.01094 | -19.63584 | 34130 ft | 484 kts | 211° |
| 2026-02-22 09:02 | 21.95319 | -19.67358 | 34130 ft | 483 kts | 211° |
| 2026-02-22 09:03 | 21.89562 | -19.71118 | 34130 ft | 484 kts | 211° |
| 2026-02-22 09:03 | 21.84049 | -19.74715 | 34130 ft | 483 kts | 211° |
| 2026-02-22 09:04 | 21.78413 | -19.78389 | 34130 ft | 484 kts | 211° |
| 2026-02-22 09:04 | 21.70114 | -19.83822 | 34130 ft | 484 kts | 211° |
| 2026-02-22 09:05 | 21.64291 | -19.87621 | 34130 ft | 483 kts | 211° |
| 2026-02-22 09:05 | 21.58523 | -19.91377 | 34130 ft | 484 kts | 211° |
| 2026-02-22 09:06 | 21.52766 | -19.95120 | 34130 ft | 484 kts | 211° |
| 2026-02-22 09:06 | 21.47006 | -19.98863 | 34130 ft | 484 kts | 211° |
| 2026-02-22 09:07 | 21.41473 | -20.02454 | 34130 ft | 484 kts | 211° |
| 2026-02-22 09:07 | 21.35670 | -20.06217 | 34130 ft | 484 kts | 211° |
| 2026-02-22 09:08 | 21.29944 | -20.09927 | 34130 ft | 484 kts | 211° |
| 2026-02-22 09:08 | 21.24179 | -20.13659 | 34130 ft | 484 kts | 211° |
| 2026-02-22 09:09 | 21.18536 | -20.17308 | 34130 ft | 484 kts | 211° |
| 2026-02-22 09:09 | 21.12772 | -20.21032 | 34130 ft | 484 kts | 211° |
| 2026-02-22 09:10 | 21.07008 | -20.24753 | 34130 ft | 484 kts | 211° |
| 2026-02-22 09:10 | 21.01381 | -20.28381 | 34130 ft | 484 kts | 211° |
| 2026-02-22 09:11 | 20.95714 | -20.32033 | 34130 ft | 484 kts | 211° |
| 2026-02-22 09:11 | 20.89980 | -20.35725 | 34130 ft | 484 kts | 211° |
| 2026-02-22 09:12 | 20.84210 | -20.39436 | 34130 ft | 484 kts | 211° |
| 2026-02-22 09:12 | 20.78446 | -20.43140 | 34130 ft | 484 kts | 211° |
| 2026-02-22 09:13 | 20.72805 | -20.46762 | 34130 ft | 484 kts | 211° |
| 2026-02-22 09:13 | 20.67024 | -20.50471 | 34130 ft | 484 kts | 211° |
| 2026-02-22 09:14 | 20.61408 | -20.54079 | 34130 ft | 484 kts | 211° |
| 2026-02-22 09:14 | 20.55823 | -20.57658 | 34130 ft | 484 kts | 211° |
| 2026-02-22 09:15 | 20.50034 | -20.61358 | 34130 ft | 484 kts | 211° |
| 2026-02-22 09:15 | 20.44264 | -20.65044 | 34130 ft | 484 kts | 211° |
| 2026-02-22 09:16 | 20.38679 | -20.68608 | 34130 ft | 484 kts | 211° |
| 2026-02-22 09:16 | 20.33083 | -20.72171 | 34130 ft | 484 kts | 211° |
| 2026-02-22 09:17 | 20.27213 | -20.75897 | 34130 ft | 484 kts | 211° |
| 2026-02-22 09:17 | 20.21461 | -20.79545 | 34130 ft | 484 kts | 211° |
| 2026-02-22 09:18 | 20.15814 | -20.83124 | 34130 ft | 484 kts | 211° |
| 2026-02-22 09:18 | 20.10182 | -20.86690 | 34130 ft | 484 kts | 211° |
| 2026-02-22 09:19 | 20.04562 | -20.90255 | 34130 ft | 484 kts | 211° |
| 2026-02-22 09:19 | 19.98880 | -20.93865 | 34130 ft | 484 kts | 211° |
| 2026-02-22 09:20 | 19.93098 | -20.97528 | 34130 ft | 484 kts | 211° |
| 2026-02-22 09:20 | 19.87330 | -21.01177 | 34130 ft | 484 kts | 211° |
| 2026-02-22 09:21 | 19.81540 | -21.04835 | 34130 ft | 484 kts | 211° |
| 2026-02-22 09:21 | 19.75755 | -21.08486 | 34130 ft | 484 kts | 211° |
| 2026-02-22 09:22 | 19.70119 | -21.12041 | 34130 ft | 484 kts | 211° |
| 2026-02-22 09:22 | 19.64332 | -21.15687 | 34130 ft | 484 kts | 211° |
| 2026-02-22 09:23 | 19.58538 | -21.19334 | 34130 ft | 484 kts | 211° |
| 2026-02-22 09:23 | 19.52895 | -21.22884 | 34130 ft | 484 kts | 211° |
| 2026-02-22 09:24 | 19.48194 | -21.25839 | 34130 ft | 484 kts | 211° |
| 2026-02-22 09:24 | 19.42514 | -21.29406 | 34130 ft | 484 kts | 211° |
| 2026-02-22 09:25 | 19.36838 | -21.32968 | 34130 ft | 484 kts | 211° |
| 2026-02-22 09:25 | 19.31045 | -21.36600 | 34130 ft | 484 kts | 211° |
| 2026-02-22 09:26 | 19.25392 | -21.40142 | 34130 ft | 484 kts | 211° |
| 2026-02-22 09:26 | 19.19595 | -21.43771 | 34130 ft | 484 kts | 211° |
| 2026-02-22 09:27 | 19.13802 | -21.47394 | 34130 ft | 484 kts | 211° |
| 2026-02-22 09:27 | 19.08045 | -21.50992 | 34130 ft | 484 kts | 211° |
| 2026-02-22 09:28 | 19.02567 | -21.54413 | 34130 ft | 484 kts | 211° |
| 2026-02-22 09:28 | 18.96595 | -21.58139 | 34130 ft | 484 kts | 210° |
| 2026-02-22 09:29 | 18.90796 | -21.61755 | 34130 ft | 484 kts | 210° |
| 2026-02-22 09:29 | 18.85166 | -21.65262 | 34130 ft | 484 kts | 210° |
| 2026-02-22 09:30 | 18.79370 | -21.68869 | 34130 ft | 484 kts | 210° |
| 2026-02-22 09:30 | 18.73562 | -21.72482 | 34130 ft | 484 kts | 210° |
| 2026-02-22 09:31 | 18.67753 | -21.76092 | 34130 ft | 484 kts | 210° |
| 2026-02-22 09:31 | 18.62102 | -21.79601 | 34130 ft | 484 kts | 210° |
| 2026-02-22 09:32 | 18.56311 | -21.83194 | 34130 ft | 484 kts | 210° |
| 2026-02-22 09:32 | 18.50512 | -21.86789 | 34130 ft | 484 kts | 210° |
| 2026-02-22 09:33 | 18.44709 | -21.90384 | 34130 ft | 484 kts | 210° |
| 2026-02-22 09:33 | 18.39057 | -21.93883 | 34130 ft | 484 kts | 210° |
| 2026-02-22 09:34 | 18.33411 | -21.97375 | 34130 ft | 484 kts | 210° |
| 2026-02-22 09:34 | 18.27604 | -22.00964 | 34130 ft | 484 kts | 210° |
| 2026-02-22 09:35 | 18.21947 | -22.04457 | 34130 ft | 484 kts | 210° |
| 2026-02-22 09:35 | 18.16095 | -22.08069 | 34130 ft | 484 kts | 210° |
| 2026-02-22 09:36 | 18.10326 | -22.11625 | 34130 ft | 484 kts | 210° |
| 2026-02-22 09:36 | 18.04516 | -22.15205 | 34130 ft | 484 kts | 210° |
| 2026-02-22 09:37 | 17.98847 | -22.18695 | 34130 ft | 484 kts | 210° |
| 2026-02-22 09:37 | 17.93044 | -22.22265 | 34130 ft | 484 kts | 210° |
| 2026-02-22 09:38 | 17.87232 | -22.25838 | 34130 ft | 484 kts | 210° |
| 2026-02-22 09:38 | 17.81618 | -22.29287 | 34130 ft | 484 kts | 210° |
| 2026-02-22 09:39 | 17.75792 | -22.32862 | 34130 ft | 484 kts | 210° |
| 2026-02-22 09:39 | 17.69984 | -22.36425 | 34130 ft | 484 kts | 210° |
| 2026-02-22 09:40 | 17.64169 | -22.39989 | 34130 ft | 484 kts | 210° |
| 2026-02-22 09:40 | 17.58495 | -22.43463 | 34130 ft | 484 kts | 210° |
| 2026-02-22 09:41 | 17.52693 | -22.47014 | 34130 ft | 484 kts | 210° |
| 2026-02-22 09:41 | 17.47021 | -22.50483 | 34130 ft | 484 kts | 210° |
| 2026-02-22 09:42 | 17.41179 | -22.54052 | 34130 ft | 484 kts | 210° |
| 2026-02-22 09:42 | 17.35403 | -22.57579 | 34130 ft | 484 kts | 210° |
| 2026-02-22 09:43 | 17.29698 | -22.61060 | 34130 ft | 484 kts | 210° |
| 2026-02-22 09:43 | 17.23855 | -22.64623 | 34130 ft | 484 kts | 210° |
| 2026-02-22 09:44 | 17.18079 | -22.68142 | 34130 ft | 484 kts | 210° |
| 2026-02-22 09:44 | 17.12259 | -22.71685 | 34130 ft | 484 kts | 210° |
| 2026-02-22 09:45 | 17.06626 | -22.75112 | 34130 ft | 484 kts | 210° |
| 2026-02-22 09:45 | 17.00808 | -22.78652 | 34130 ft | 484 kts | 210° |
| 2026-02-22 09:46 | 16.95149 | -22.82097 | 34130 ft | 484 kts | 210° |
| 2026-02-22 09:46 | 16.89455 | -22.85552 | 34130 ft | 484 kts | 210° |
| 2026-02-22 09:47 | 16.83623 | -22.89087 | 34130 ft | 484 kts | 210° |
| 2026-02-22 09:47 | 16.77798 | -22.92617 | 34130 ft | 484 kts | 210° |
| 2026-02-22 09:48 | 16.72311 | -22.95930 | 34130 ft | 484 kts | 210° |
| 2026-02-22 09:48 | 16.66250 | -22.99467 | 34130 ft | 484 kts | 209° |
| 2026-02-22 09:49 | 16.60518 | -23.02799 | 34130 ft | 484 kts | 209° |
| 2026-02-22 09:49 | 16.54646 | -23.06218 | 34130 ft | 484 kts | 209° |
| 2026-02-22 09:50 | 16.48951 | -23.09534 | 34130 ft | 484 kts | 209° |
| 2026-02-22 09:50 | 16.43056 | -23.12967 | 34130 ft | 484 kts | 209° |
| 2026-02-22 09:51 | 16.37175 | -23.16404 | 34130 ft | 484 kts | 209° |
| 2026-02-22 09:51 | 16.31450 | -23.19741 | 34130 ft | 484 kts | 209° |
| 2026-02-22 09:52 | 16.25576 | -23.23161 | 34130 ft | 484 kts | 209° |
| 2026-02-22 09:52 | 16.19898 | -23.26463 | 34130 ft | 484 kts | 209° |
| 2026-02-22 09:53 | 16.14094 | -23.29835 | 34130 ft | 484 kts | 209° |
| 2026-02-22 09:53 | 16.08344 | -23.33173 | 34130 ft | 484 kts | 209° |
| 2026-02-22 09:54 | 16.02438 | -23.36600 | 34130 ft | 484 kts | 209° |
| 2026-02-22 09:54 | 15.96555 | -23.40012 | 34130 ft | 484 kts | 209° |
| 2026-02-22 09:55 | 15.90715 | -23.43396 | 34130 ft | 484 kts | 209° |
| 2026-02-22 09:55 | 15.84957 | -23.46730 | 34130 ft | 484 kts | 209° |
| 2026-02-22 09:56 | 15.79078 | -23.50132 | 34130 ft | 484 kts | 209° |
| 2026-02-22 09:56 | 15.73320 | -23.53462 | 34130 ft | 484 kts | 209° |
| 2026-02-22 09:57 | 15.67429 | -23.56867 | 34130 ft | 484 kts | 209° |
| 2026-02-22 09:57 | 15.61548 | -23.60263 | 34130 ft | 484 kts | 209° |
| 2026-02-22 09:58 | 15.55812 | -23.63573 | 34130 ft | 484 kts | 209° |
| 2026-02-22 09:58 | 15.49911 | -23.66977 | 34130 ft | 484 kts | 209° |
| 2026-02-22 09:59 | 15.44030 | -23.70366 | 34130 ft | 484 kts | 209° |
| 2026-02-22 09:59 | 15.38144 | -23.73757 | 34130 ft | 484 kts | 209° |
| 2026-02-22 10:00 | 15.32404 | -23.77061 | 34130 ft | 484 kts | 209° |
| 2026-02-22 10:00 | 15.26506 | -23.80454 | 34130 ft | 484 kts | 209° |
| 2026-02-22 10:01 | 15.20624 | -23.83836 | 34130 ft | 484 kts | 209° |
| 2026-02-22 10:02 | 15.11931 | -23.88829 | 34130 ft | 484 kts | 209° |
| 2026-02-22 10:02 | 15.06037 | -23.92213 | 34130 ft | 484 kts | 209° |
| 2026-02-22 10:03 | 15.00147 | -23.95591 | 34130 ft | 484 kts | 209° |
| 2026-02-22 10:03 | 14.94294 | -23.98947 | 34130 ft | 484 kts | 209° |
| 2026-02-22 10:04 | 14.88555 | -24.02235 | 34130 ft | 484 kts | 209° |
| 2026-02-22 10:04 | 14.82985 | -24.05424 | 34130 ft | 484 kts | 209° |
| 2026-02-22 10:05 | 14.77333 | -24.08658 | 34130 ft | 484 kts | 209° |
| 2026-02-22 10:05 | 14.71531 | -24.11976 | 34130 ft | 484 kts | 209° |
| 2026-02-22 10:06 | 14.65640 | -24.15343 | 34130 ft | 484 kts | 209° |
| 2026-02-22 10:06 | 14.59883 | -24.18631 | 34130 ft | 484 kts | 209° |
| 2026-02-22 10:07 | 14.53989 | -24.21996 | 34130 ft | 484 kts | 209° |
| 2026-02-22 10:07 | 14.48234 | -24.25279 | 34130 ft | 484 kts | 209° |
| 2026-02-22 10:08 | 14.42339 | -24.28640 | 34130 ft | 484 kts | 209° |
| 2026-02-22 10:08 | 14.36444 | -24.31999 | 34130 ft | 484 kts | 209° |
| 2026-02-22 10:09 | 14.30648 | -24.35300 | 34130 ft | 484 kts | 209° |
| 2026-02-22 10:09 | 14.24747 | -24.38658 | 34130 ft | 484 kts | 209° |
| 2026-02-22 10:10 | 14.18891 | -24.41989 | 34130 ft | 484 kts | 209° |
| 2026-02-22 10:10 | 14.13001 | -24.45343 | 34130 ft | 484 kts | 209° |
| 2026-02-22 10:11 | 14.07256 | -24.48608 | 34130 ft | 484 kts | 209° |
| 2026-02-22 10:11 | 14.02345 | -24.51395 | 34130 ft | 484 kts | 209° |
| 2026-02-22 10:12 | 13.96710 | -24.54591 | 34130 ft | 484 kts | 209° |
| 2026-02-22 10:12 | 13.91050 | -24.57800 | 34130 ft | 484 kts | 209° |
| 2026-02-22 10:13 | 13.85442 | -24.60977 | 34130 ft | 484 kts | 208° |
| 2026-02-22 10:13 | 13.79411 | -24.64388 | 34130 ft | 484 kts | 208° |
| 2026-02-22 10:14 | 13.73732 | -24.67600 | 34130 ft | 484 kts | 208° |
| 2026-02-22 10:14 | 13.67838 | -24.70930 | 34130 ft | 484 kts | 208° |
| 2026-02-22 10:15 | 13.61936 | -24.74264 | 34130 ft | 484 kts | 208° |
| 2026-02-22 10:15 | 13.56039 | -24.77597 | 34130 ft | 484 kts | 209° |
| 2026-02-22 10:16 | 13.50239 | -24.80881 | 34130 ft | 484 kts | 209° |
| 2026-02-22 10:16 | 13.44335 | -24.84218 | 34130 ft | 484 kts | 208° |
| 2026-02-22 10:17 | 13.38474 | -24.87526 | 34130 ft | 484 kts | 208° |
| 2026-02-22 10:17 | 13.32696 | -24.90785 | 34130 ft | 484 kts | 208° |
| 2026-02-22 10:18 | 13.26767 | -24.94127 | 34130 ft | 484 kts | 208° |
| 2026-02-22 10:18 | 13.20865 | -24.97452 | 34130 ft | 484 kts | 208° |
| 2026-02-22 10:19 | 13.15178 | -25.00654 | 34130 ft | 483 kts | 208° |
| 2026-02-22 10:19 | 13.09237 | -25.03996 | 34130 ft | 483 kts | 208° |
| 2026-02-22 10:20 | 13.03337 | -25.07315 | 34130 ft | 483 kts | 208° |
| 2026-02-22 10:20 | 12.97437 | -25.10631 | 34130 ft | 483 kts | 208° |
| 2026-02-22 10:21 | 12.91639 | -25.13889 | 34130 ft | 483 kts | 208° |
| 2026-02-22 10:21 | 12.85952 | -25.17081 | 34130 ft | 483 kts | 208° |
| 2026-02-22 10:22 | 12.80049 | -25.20394 | 34130 ft | 483 kts | 208° |
| 2026-02-22 10:22 | 12.74144 | -25.23706 | 34130 ft | 483 kts | 208° |
| 2026-02-22 10:23 | 12.68379 | -25.26938 | 34130 ft | 483 kts | 208° |
| 2026-02-22 10:23 | 12.62452 | -25.30259 | 34130 ft | 483 kts | 208° |
| 2026-02-22 10:24 | 12.56545 | -25.33567 | 34130 ft | 483 kts | 208° |
| 2026-02-22 10:24 | 12.50645 | -25.36869 | 34130 ft | 483 kts | 208° |
| 2026-02-22 10:25 | 12.44889 | -25.40089 | 34130 ft | 483 kts | 208° |
| 2026-02-22 10:25 | 12.38975 | -25.43396 | 34130 ft | 483 kts | 208° |
| 2026-02-22 10:26 | 12.33108 | -25.46674 | 34130 ft | 483 kts | 208° |
| 2026-02-22 10:26 | 12.27361 | -25.49884 | 34130 ft | 483 kts | 208° |
| 2026-02-22 10:27 | 12.21452 | -25.53183 | 34130 ft | 483 kts | 208° |
| 2026-02-22 10:27 | 12.15545 | -25.56479 | 34130 ft | 483 kts | 208° |
| 2026-02-22 10:28 | 12.09818 | -25.59673 | 34130 ft | 483 kts | 208° |
| 2026-02-22 10:28 | 12.03871 | -25.62988 | 34130 ft | 483 kts | 208° |
| 2026-02-22 10:29 | 11.97999 | -25.66259 | 34130 ft | 483 kts | 208° |
| 2026-02-22 10:29 | 11.92090 | -25.69549 | 34130 ft | 483 kts | 208° |
| 2026-02-22 10:30 | 11.86306 | -25.72769 | 34130 ft | 483 kts | 208° |
| 2026-02-22 10:30 | 11.80396 | -25.76056 | 34130 ft | 483 kts | 208° |
| 2026-02-22 10:31 | 11.74489 | -25.79341 | 34130 ft | 483 kts | 208° |
| 2026-02-22 10:31 | 11.68754 | -25.82529 | 34130 ft | 483 kts | 208° |
| 2026-02-22 10:32 | 11.62816 | -25.85827 | 34130 ft | 483 kts | 208° |
| 2026-02-22 10:32 | 11.56942 | -25.89088 | 34130 ft | 483 kts | 208° |
| 2026-02-22 10:33 | 11.51196 | -25.92277 | 34130 ft | 483 kts | 208° |
| 2026-02-22 10:33 | 11.45241 | -25.95580 | 34130 ft | 483 kts | 208° |
| 2026-02-22 10:34 | 11.39445 | -25.98794 | 34130 ft | 483 kts | 208° |
| 2026-02-22 10:34 | 11.33537 | -26.02068 | 34130 ft | 483 kts | 208° |
| 2026-02-22 10:35 | 11.27780 | -26.05256 | 34130 ft | 483 kts | 208° |
| 2026-02-22 10:35 | 11.21867 | -26.08530 | 34130 ft | 483 kts | 208° |
| 2026-02-22 10:36 | 11.16122 | -26.11709 | 34130 ft | 483 kts | 208° |
| 2026-02-22 10:36 | 11.10333 | -26.14912 | 34130 ft | 483 kts | 208° |
| 2026-02-22 10:37 | 11.04637 | -26.18061 | 34130 ft | 483 kts | 208° |
| 2026-02-22 10:37 | 10.98696 | -26.21344 | 34130 ft | 483 kts | 208° |
| 2026-02-22 10:38 | 10.92817 | -26.24591 | 34130 ft | 483 kts | 208° |
| 2026-02-22 10:38 | 10.87073 | -26.27763 | 34130 ft | 483 kts | 208° |
| 2026-02-22 10:39 | 10.81149 | -26.31032 | 34130 ft | 483 kts | 208° |
| 2026-02-22 10:39 | 10.75232 | -26.34297 | 34130 ft | 483 kts | 208° |
| 2026-02-22 10:40 | 10.69314 | -26.37560 | 34130 ft | 483 kts | 208° |
| 2026-02-22 10:40 | 10.63581 | -26.40720 | 34130 ft | 483 kts | 208° |
| 2026-02-22 10:41 | 10.57665 | -26.43978 | 34130 ft | 483 kts | 208° |
| 2026-02-22 10:41 | 10.51943 | -26.47130 | 34130 ft | 483 kts | 208° |
| 2026-02-22 10:42 | 10.46143 | -26.50322 | 34130 ft | 483 kts | 208° |
| 2026-02-22 10:42 | 10.37256 | -26.55211 | 34130 ft | 483 kts | 208° |
| 2026-02-22 10:43 | 10.31595 | -26.58324 | 34130 ft | 483 kts | 208° |
| 2026-02-22 10:43 | 10.25697 | -26.61565 | 34130 ft | 483 kts | 208° |
| 2026-02-22 10:44 | 10.19766 | -26.64824 | 34130 ft | 483 kts | 208° |
| 2026-02-22 10:44 | 10.13845 | -26.68075 | 34130 ft | 483 kts | 208° |
| 2026-02-22 10:45 | 10.08058 | -26.71252 | 34130 ft | 483 kts | 208° |
| 2026-02-22 10:45 | 10.02161 | -26.74487 | 34130 ft | 483 kts | 208° |
| 2026-02-22 10:46 | 9.96243 | -26.77733 | 34130 ft | 483 kts | 208° |
| 2026-02-22 10:46 | 9.90324 | -26.80978 | 34130 ft | 483 kts | 208° |
| 2026-02-22 10:47 | 9.84551 | -26.84142 | 34130 ft | 483 kts | 208° |
| 2026-02-22 10:47 | 9.78613 | -26.87395 | 34130 ft | 483 kts | 208° |
| 2026-02-22 10:48 | 9.72692 | -26.90637 | 34130 ft | 483 kts | 208° |
| 2026-02-22 10:48 | 9.66966 | -26.93771 | 34130 ft | 483 kts | 208° |
| 2026-02-22 10:49 | 9.61190 | -26.96931 | 34130 ft | 483 kts | 208° |
| 2026-02-22 10:49 | 9.55269 | -27.00170 | 34130 ft | 483 kts | 208° |
| 2026-02-22 10:50 | 9.49348 | -27.03407 | 34130 ft | 483 kts | 208° |
| 2026-02-22 10:50 | 9.43584 | -27.06557 | 34130 ft | 483 kts | 208° |
| 2026-02-22 10:51 | 9.37682 | -27.09781 | 34130 ft | 483 kts | 208° |
| 2026-02-22 10:51 | 9.31763 | -27.13014 | 34130 ft | 483 kts | 208° |
| 2026-02-22 10:52 | 9.25843 | -27.16245 | 34130 ft | 483 kts | 208° |
| 2026-02-22 10:52 | 9.20073 | -27.19396 | 34130 ft | 483 kts | 208° |
| 2026-02-22 10:53 | 9.14187 | -27.22609 | 34130 ft | 483 kts | 208° |
| 2026-02-22 10:53 | 9.08262 | -27.25838 | 34130 ft | 483 kts | 208° |
| 2026-02-22 10:54 | 9.02436 | -27.29013 | 34130 ft | 483 kts | 208° |
| 2026-02-22 10:54 | 8.96519 | -27.32235 | 34130 ft | 483 kts | 208° |
| 2026-02-22 10:55 | 8.90599 | -27.35457 | 34130 ft | 483 kts | 208° |
| 2026-02-22 10:55 | 8.85676 | -27.38135 | 34130 ft | 483 kts | 208° |
| 2026-02-22 10:56 | 8.79866 | -27.41294 | 34130 ft | 483 kts | 208° |
| 2026-02-22 10:56 | 8.73945 | -27.44513 | 34130 ft | 483 kts | 208° |
| 2026-02-22 10:57 | 8.67057 | -27.48256 | 34130 ft | 483 kts | 208° |
| 2026-02-22 10:57 | 8.62278 | -27.50855 | 34130 ft | 483 kts | 208° |
| 2026-02-22 10:58 | 8.56351 | -27.54080 | 34130 ft | 483 kts | 208° |
| 2026-02-22 10:58 | 8.50430 | -27.57298 | 34130 ft | 483 kts | 208° |
| 2026-02-22 10:59 | 8.44502 | -27.60518 | 34130 ft | 483 kts | 208° |
| 2026-02-22 10:59 | 8.38754 | -27.63639 | 34130 ft | 483 kts | 208° |
| 2026-02-22 11:00 | 8.32834 | -27.66852 | 34130 ft | 483 kts | 208° |
| 2026-02-22 11:00 | 8.26907 | -27.70067 | 34130 ft | 483 kts | 208° |
| 2026-02-22 11:01 | 8.21146 | -27.73191 | 34130 ft | 483 kts | 208° |
| 2026-02-22 11:01 | 8.15193 | -27.76419 | 34130 ft | 483 kts | 208° |
| 2026-02-22 11:02 | 8.09266 | -27.79631 | 34130 ft | 483 kts | 208° |
| 2026-02-22 11:02 | 8.03548 | -27.82729 | 34130 ft | 483 kts | 208° |
| 2026-02-22 11:03 | 7.97592 | -27.85955 | 34130 ft | 483 kts | 208° |
| 2026-02-22 11:03 | 7.91662 | -27.89165 | 34130 ft | 483 kts | 208° |
| 2026-02-22 11:04 | 7.85940 | -27.92263 | 34130 ft | 483 kts | 208° |
| 2026-02-22 11:04 | 7.80170 | -27.95384 | 34130 ft | 483 kts | 208° |
| 2026-02-22 11:05 | 7.74226 | -27.98600 | 34130 ft | 483 kts | 208° |
| 2026-02-22 11:05 | 7.68498 | -28.01697 | 34130 ft | 483 kts | 208° |
| 2026-02-22 11:06 | 7.62552 | -28.04912 | 34130 ft | 483 kts | 208° |
| 2026-02-22 11:06 | 7.56627 | -28.08116 | 34130 ft | 483 kts | 208° |
| 2026-02-22 11:07 | 7.50877 | -28.11224 | 34130 ft | 483 kts | 208° |
| 2026-02-22 11:07 | 7.44945 | -28.14426 | 34130 ft | 483 kts | 208° |
| 2026-02-22 11:08 | 7.39019 | -28.17625 | 34130 ft | 483 kts | 208° |
| 2026-02-22 11:08 | 7.33230 | -28.20749 | 34130 ft | 483 kts | 208° |
| 2026-02-22 11:09 | 7.27310 | -28.23941 | 34130 ft | 483 kts | 208° |
| 2026-02-22 11:09 | 7.21384 | -28.27134 | 34130 ft | 483 kts | 208° |
| 2026-02-22 11:10 | 7.15452 | -28.30330 | 34130 ft | 483 kts | 208° |
| 2026-02-22 11:10 | 7.09662 | -28.33449 | 34130 ft | 483 kts | 208° |
| 2026-02-22 11:11 | 7.03843 | -28.36583 | 34130 ft | 483 kts | 208° |
| 2026-02-22 11:11 | 6.97919 | -28.39776 | 34130 ft | 483 kts | 208° |
| 2026-02-22 11:12 | 6.91992 | -28.42971 | 34130 ft | 483 kts | 208° |
| 2026-02-22 11:12 | 6.86191 | -28.46096 | 34130 ft | 483 kts | 208° |
| 2026-02-22 11:13 | 6.80385 | -28.49221 | 34130 ft | 483 kts | 208° |
| 2026-02-22 11:13 | 6.74454 | -28.52413 | 34130 ft | 483 kts | 208° |
| 2026-02-22 11:14 | 6.68680 | -28.55520 | 34130 ft | 483 kts | 208° |
| 2026-02-22 11:14 | 6.62742 | -28.58713 | 34130 ft | 483 kts | 208° |
| 2026-02-22 11:15 | 6.56811 | -28.61902 | 34130 ft | 483 kts | 208° |
| 2026-02-22 11:15 | 6.50883 | -28.65088 | 34130 ft | 483 kts | 208° |
| 2026-02-22 11:16 | 6.45115 | -28.68188 | 34130 ft | 483 kts | 208° |
| 2026-02-22 11:16 | 6.39225 | -28.71353 | 34130 ft | 483 kts | 208° |
| 2026-02-22 11:17 | 6.33287 | -28.74542 | 34130 ft | 483 kts | 208° |
| 2026-02-22 11:17 | 6.27482 | -28.77659 | 34130 ft | 483 kts | 208° |
| 2026-02-22 11:18 | 6.21553 | -28.80842 | 34130 ft | 483 kts | 208° |
| 2026-02-22 11:18 | 6.15799 | -28.83930 | 34130 ft | 483 kts | 208° |
| 2026-02-22 11:19 | 6.09841 | -28.87127 | 34130 ft | 483 kts | 208° |
| 2026-02-22 11:19 | 6.03908 | -28.90310 | 34130 ft | 483 kts | 208° |
| 2026-02-22 11:20 | 5.98013 | -28.93471 | 34130 ft | 483 kts | 208° |
| 2026-02-22 11:20 | 5.92328 | -28.96519 | 34130 ft | 483 kts | 208° |
| 2026-02-22 11:21 | 5.86256 | -28.99774 | 34130 ft | 483 kts | 208° |
| 2026-02-22 11:21 | 5.80327 | -29.02951 | 34130 ft | 483 kts | 208° |
| 2026-02-22 11:22 | 5.74694 | -29.05969 | 34130 ft | 483 kts | 208° |
| 2026-02-22 11:22 | 5.68766 | -29.09145 | 34130 ft | 483 kts | 208° |
| 2026-02-22 11:23 | 5.62832 | -29.12322 | 34130 ft | 483 kts | 208° |
| 2026-02-22 11:23 | 5.56895 | -29.15501 | 34130 ft | 483 kts | 208° |
| 2026-02-22 11:24 | 5.51127 | -29.18589 | 34130 ft | 483 kts | 208° |
| 2026-02-22 11:24 | 5.45182 | -29.21770 | 34130 ft | 483 kts | 208° |
| 2026-02-22 11:25 | 5.39250 | -29.24943 | 34130 ft | 483 kts | 208° |
| 2026-02-22 11:25 | 5.33317 | -29.28117 | 34130 ft | 483 kts | 208° |
| 2026-02-22 11:26 | 5.27525 | -29.31215 | 34130 ft | 483 kts | 208° |
| 2026-02-22 11:26 | 5.21589 | -29.34389 | 34130 ft | 483 kts | 208° |
| 2026-02-22 11:27 | 5.15654 | -29.37562 | 34130 ft | 483 kts | 208° |
| 2026-02-22 11:27 | 5.09861 | -29.40658 | 34130 ft | 483 kts | 208° |
| 2026-02-22 11:28 | 5.04039 | -29.43769 | 34243 ft | 487 kts | 208° |
| 2026-02-22 11:28 | 5.01053 | -29.45364 | 34604 ft | 485 kts | 208° |
| 2026-02-22 11:28 | 4.98084 | -29.46950 | 34971 ft | 483 kts | 208° |
| 2026-02-22 11:29 | 4.95116 | -29.48535 | 35287 ft | 482 kts | 208° |
| 2026-02-22 11:29 | 4.92162 | -29.50113 | 35572 ft | 481 kts | 208° |
| 2026-02-22 11:29 | 4.89247 | -29.51670 | 35844 ft | 481 kts | 208° |
| 2026-02-22 11:29 | 4.86405 | -29.53188 | 36099 ft | 480 kts | 208° |
| 2026-02-22 11:30 | 4.80485 | -29.56348 | 36129 ft | 479 kts | 208° |
| 2026-02-22 11:30 | 4.74597 | -29.59491 | 36130 ft | 479 kts | 208° |
| 2026-02-22 11:31 | 4.68880 | -29.62543 | 36130 ft | 479 kts | 208° |
| 2026-02-22 11:31 | 4.63137 | -29.65607 | 36130 ft | 479 kts | 208° |
| 2026-02-22 11:32 | 4.57221 | -29.68764 | 36130 ft | 479 kts | 208° |
| 2026-02-22 11:32 | 4.51330 | -29.71906 | 36130 ft | 479 kts | 208° |
| 2026-02-22 11:33 | 4.45641 | -29.74940 | 36130 ft | 479 kts | 208° |
| 2026-02-22 11:33 | 4.39915 | -29.77994 | 36130 ft | 479 kts | 208° |
| 2026-02-22 11:34 | 4.33965 | -29.81166 | 36130 ft | 479 kts | 208° |
| 2026-02-22 11:34 | 4.28071 | -29.84308 | 36130 ft | 479 kts | 208° |
| 2026-02-22 11:35 | 4.22371 | -29.87348 | 36130 ft | 479 kts | 208° |
| 2026-02-22 11:35 | 4.16475 | -29.90490 | 36130 ft | 479 kts | 208° |
| 2026-02-22 11:36 | 4.10584 | -29.93628 | 36130 ft | 479 kts | 208° |
| 2026-02-22 11:36 | 4.04827 | -29.96694 | 36130 ft | 479 kts | 208° |
| 2026-02-22 11:37 | 3.98908 | -29.99845 | 36130 ft | 479 kts | 208° |
| 2026-02-22 11:37 | 3.93207 | -30.02873 | 36130 ft | 479 kts | 208° |
| 2026-02-22 11:38 | 3.87309 | -30.06007 | 36130 ft | 479 kts | 208° |
| 2026-02-22 11:38 | 3.81560 | -30.09062 | 36130 ft | 479 kts | 208° |
| 2026-02-22 11:39 | 3.75808 | -30.12119 | 36130 ft | 479 kts | 208° |
| 2026-02-22 11:39 | 3.69912 | -30.15251 | 36130 ft | 479 kts | 208° |
| 2026-02-22 11:40 | 3.64150 | -30.18315 | 36130 ft | 479 kts | 208° |
| 2026-02-22 11:40 | 3.59240 | -30.20924 | 36130 ft | 479 kts | 208° |
| 2026-02-22 11:41 | 3.53503 | -30.23972 | 36130 ft | 479 kts | 208° |
| 2026-02-22 11:41 | 3.47710 | -30.27050 | 36130 ft | 479 kts | 208° |
| 2026-02-22 11:42 | 3.42080 | -30.30040 | 36130 ft | 479 kts | 208° |
| 2026-02-22 11:42 | 3.36188 | -30.33168 | 36130 ft | 479 kts | 208° |
| 2026-02-22 11:43 | 3.27340 | -30.37866 | 36130 ft | 479 kts | 208° |
| 2026-02-22 11:44 | 3.21637 | -30.40893 | 36130 ft | 479 kts | 208° |
| 2026-02-22 11:44 | 3.15760 | -30.44012 | 36130 ft | 479 kts | 208° |
| 2026-02-22 11:45 | 3.10136 | -30.46997 | 36130 ft | 479 kts | 208° |
| 2026-02-22 11:45 | 3.04348 | -30.50068 | 36130 ft | 479 kts | 208° |
| 2026-02-22 11:46 | 2.98434 | -30.53206 | 36130 ft | 479 kts | 208° |
| 2026-02-22 11:46 | 2.92541 | -30.56332 | 36130 ft | 479 kts | 208° |
| 2026-02-22 11:47 | 2.86815 | -30.59369 | 36130 ft | 479 kts | 208° |
| 2026-02-22 11:47 | 2.81070 | -30.62416 | 36130 ft | 479 kts | 208° |
| 2026-02-22 11:48 | 2.75145 | -30.65559 | 36130 ft | 479 kts | 208° |
| 2026-02-22 11:48 | 2.69253 | -30.68683 | 36130 ft | 479 kts | 208° |
| 2026-02-22 11:49 | 2.63354 | -30.71810 | 36130 ft | 479 kts | 208° |
| 2026-02-22 11:49 | 2.57570 | -30.74877 | 36130 ft | 479 kts | 208° |
| 2026-02-22 11:50 | 2.51718 | -30.77980 | 36130 ft | 479 kts | 208° |
| 2026-02-22 11:50 | 2.45977 | -30.81024 | 36130 ft | 479 kts | 208° |
| 2026-02-22 11:51 | 2.40211 | -30.84079 | 36130 ft | 479 kts | 208° |
| 2026-02-22 11:51 | 2.34302 | -30.87211 | 36130 ft | 479 kts | 208° |
| 2026-02-22 11:52 | 2.28442 | -30.90316 | 36130 ft | 479 kts | 208° |
| 2026-02-22 11:52 | 2.22802 | -30.93302 | 36130 ft | 479 kts | 208° |
| 2026-02-22 11:53 | 2.16858 | -30.96446 | 36130 ft | 479 kts | 208° |
| 2026-02-22 11:53 | 2.10948 | -30.99573 | 36130 ft | 479 kts | 208° |
| 2026-02-22 11:54 | 2.05082 | -31.02677 | 36130 ft | 479 kts | 208° |
| 2026-02-22 11:54 | 1.99426 | -31.05669 | 36130 ft | 479 kts | 208° |
| 2026-02-22 11:55 | 1.93524 | -31.08792 | 36130 ft | 479 kts | 208° |
| 2026-02-22 11:55 | 1.87607 | -31.11924 | 36130 ft | 479 kts | 208° |
| 2026-02-22 11:56 | 1.81709 | -31.15045 | 36130 ft | 479 kts | 208° |
| 2026-02-22 11:56 | 1.75852 | -31.18144 | 36130 ft | 479 kts | 208° |
| 2026-02-22 11:57 | 1.69959 | -31.21261 | 36130 ft | 479 kts | 208° |
| 2026-02-22 11:57 | 1.64056 | -31.24384 | 36130 ft | 479 kts | 208° |
| 2026-02-22 11:58 | 1.58160 | -31.27502 | 36130 ft | 479 kts | 208° |
| 2026-02-22 11:58 | 1.52255 | -31.30625 | 36130 ft | 479 kts | 208° |
| 2026-02-22 11:59 | 1.46355 | -31.33746 | 36130 ft | 479 kts | 208° |
| 2026-02-22 11:59 | 1.40455 | -31.36866 | 36130 ft | 479 kts | 208° |
| 2026-02-22 12:00 | 1.34602 | -31.39961 | 36130 ft | 479 kts | 208° |
| 2026-02-22 12:00 | 1.28701 | -31.43081 | 36130 ft | 479 kts | 208° |
| 2026-02-22 12:01 | 1.22800 | -31.46201 | 36130 ft | 479 kts | 208° |
| 2026-02-22 12:01 | 1.16900 | -31.49321 | 36130 ft | 479 kts | 208° |
| 2026-02-22 12:02 | 1.11001 | -31.52439 | 36130 ft | 479 kts | 208° |
| 2026-02-22 12:02 | 1.05106 | -31.55556 | 36130 ft | 479 kts | 208° |
| 2026-02-22 12:03 | 0.99203 | -31.58677 | 36130 ft | 479 kts | 208° |
| 2026-02-22 12:03 | 0.93341 | -31.61776 | 36130 ft | 479 kts | 208° |
| 2026-02-22 12:04 | 0.87443 | -31.64894 | 36130 ft | 479 kts | 208° |
| 2026-02-22 12:04 | 0.81542 | -31.68013 | 36130 ft | 479 kts | 208° |
| 2026-02-22 12:05 | 0.75639 | -31.71133 | 36130 ft | 479 kts | 208° |
| 2026-02-22 12:05 | 0.69739 | -31.74252 | 36130 ft | 479 kts | 208° |
| 2026-02-22 12:06 | 0.63836 | -31.77373 | 36130 ft | 479 kts | 208° |
| 2026-02-22 12:06 | 0.57977 | -31.80470 | 36130 ft | 479 kts | 208° |
| 2026-02-22 12:07 | 0.52079 | -31.83587 | 36130 ft | 479 kts | 208° |
| 2026-02-22 12:07 | 0.46181 | -31.86704 | 36130 ft | 479 kts | 208° |
| 2026-02-22 12:08 | 0.40281 | -31.89824 | 36130 ft | 479 kts | 208° |
| 2026-02-22 12:08 | 0.34378 | -31.92946 | 36130 ft | 479 kts | 208° |
| 2026-02-22 12:09 | 0.28479 | -31.96068 | 36130 ft | 479 kts | 208° |
| 2026-02-22 12:09 | 0.22581 | -31.99190 | 36130 ft | 479 kts | 208° |
| 2026-02-22 12:10 | 0.16686 | -32.02310 | 36130 ft | 479 kts | 208° |
| 2026-02-22 12:10 | 0.10830 | -32.05410 | 36130 ft | 479 kts | 208° |
| 2026-02-22 12:11 | 0.04928 | -32.08534 | 36130 ft | 479 kts | 208° |
| 2026-02-22 12:11 | -0.00972 | -32.11657 | 36130 ft | 479 kts | 208° |
| 2026-02-22 12:12 | -0.06868 | -32.14778 | 36130 ft | 479 kts | 208° |
| 2026-02-22 12:12 | -0.12770 | -32.17902 | 36130 ft | 479 kts | 208° |
| 2026-02-22 12:13 | -0.18630 | -32.21003 | 36130 ft | 479 kts | 208° |
| 2026-02-22 12:13 | -0.24532 | -32.24127 | 36130 ft | 479 kts | 208° |
| 2026-02-22 12:14 | -0.30433 | -32.27251 | 36130 ft | 479 kts | 208° |
| 2026-02-22 12:14 | -0.36333 | -32.30374 | 36130 ft | 479 kts | 208° |
| 2026-02-22 12:15 | -0.42195 | -32.33477 | 36130 ft | 479 kts | 208° |
| 2026-02-22 12:15 | -0.48092 | -32.36598 | 36130 ft | 479 kts | 208° |
| 2026-02-22 12:16 | -0.53987 | -32.39719 | 36130 ft | 479 kts | 208° |
| 2026-02-22 12:16 | -0.59884 | -32.42840 | 36130 ft | 479 kts | 208° |
| 2026-02-22 12:17 | -0.65784 | -32.45964 | 36130 ft | 479 kts | 208° |
| 2026-02-22 12:17 | -0.71686 | -32.49088 | 36130 ft | 479 kts | 208° |
| 2026-02-22 12:18 | -0.77590 | -32.52214 | 36130 ft | 479 kts | 208° |
| 2026-02-22 12:18 | -0.83446 | -32.55315 | 36130 ft | 479 kts | 208° |
| 2026-02-22 12:19 | -0.89354 | -32.58442 | 36130 ft | 479 kts | 208° |
| 2026-02-22 12:19 | -0.95253 | -32.61566 | 36130 ft | 479 kts | 208° |
| 2026-02-22 12:20 | -1.01154 | -32.64690 | 36130 ft | 479 kts | 208° |
| 2026-02-22 12:20 | -1.07047 | -32.67811 | 36130 ft | 479 kts | 208° |
| 2026-02-22 12:21 | -1.12946 | -32.70935 | 36130 ft | 479 kts | 208° |
| 2026-02-22 12:21 | -1.18807 | -32.74039 | 36130 ft | 479 kts | 208° |
| 2026-02-22 12:22 | -1.24707 | -32.77164 | 36130 ft | 479 kts | 208° |
| 2026-02-22 12:22 | -1.30605 | -32.80288 | 36130 ft | 479 kts | 208° |
| 2026-02-22 12:23 | -1.36507 | -32.83414 | 36130 ft | 479 kts | 208° |
| 2026-02-22 12:23 | -1.42405 | -32.86536 | 36130 ft | 479 kts | 208° |
| 2026-02-22 12:24 | -1.48262 | -32.89638 | 36130 ft | 479 kts | 208° |
| 2026-02-22 12:24 | -1.54161 | -32.92764 | 36130 ft | 479 kts | 208° |
| 2026-02-22 12:25 | -1.60062 | -32.95890 | 36130 ft | 479 kts | 208° |
| 2026-02-22 12:25 | -1.65960 | -32.99016 | 36130 ft | 479 kts | 208° |
| 2026-02-22 12:26 | -1.71857 | -33.02140 | 36130 ft | 479 kts | 208° |
| 2026-02-22 12:26 | -1.77750 | -33.05263 | 36130 ft | 479 kts | 208° |
| 2026-02-22 12:27 | -1.83655 | -33.08393 | 36130 ft | 479 kts | 208° |
| 2026-02-22 12:27 | -1.89511 | -33.11497 | 36130 ft | 479 kts | 208° |
| 2026-02-22 12:28 | -1.94421 | -33.14099 | 36130 ft | 479 kts | 208° |
| 2026-02-22 12:28 | -2.00321 | -33.17227 | 36130 ft | 479 kts | 208° |
| 2026-02-22 12:29 | -2.06216 | -33.20352 | 36130 ft | 480 kts | 208° |
| 2026-02-22 12:29 | -2.15067 | -33.25045 | 36130 ft | 480 kts | 208° |
| 2026-02-22 12:30 | -2.20967 | -33.28174 | 36130 ft | 479 kts | 208° |
| 2026-02-22 12:30 | -2.26827 | -33.31282 | 36130 ft | 480 kts | 208° |
| 2026-02-22 12:31 | -2.32731 | -33.34413 | 36130 ft | 480 kts | 208° |
| 2026-02-22 12:31 | -2.38625 | -33.37539 | 36130 ft | 480 kts | 208° |
| 2026-02-22 12:32 | -2.44522 | -33.40668 | 36130 ft | 480 kts | 208° |
| 2026-02-22 12:32 | -2.50419 | -33.43797 | 36130 ft | 480 kts | 208° |
| 2026-02-22 12:33 | -2.56316 | -33.46927 | 36130 ft | 480 kts | 208° |
| 2026-02-22 12:33 | -2.62174 | -33.50035 | 36130 ft | 480 kts | 208° |
| 2026-02-22 12:34 | -2.68070 | -33.53155 | 36130 ft | 480 kts | 208° |
| 2026-02-22 12:34 | -2.73978 | -33.56276 | 36130 ft | 480 kts | 208° |
| 2026-02-22 12:35 | -2.79878 | -33.59396 | 36130 ft | 480 kts | 208° |
| 2026-02-22 12:35 | -2.85779 | -33.62517 | 36130 ft | 480 kts | 208° |
| 2026-02-22 12:36 | -2.91679 | -33.65637 | 36130 ft | 480 kts | 208° |
| 2026-02-22 12:36 | -2.97582 | -33.68758 | 36130 ft | 480 kts | 208° |
| 2026-02-22 12:37 | -3.03446 | -33.71860 | 36130 ft | 480 kts | 208° |
| 2026-02-22 12:37 | -3.09344 | -33.74980 | 36130 ft | 480 kts | 208° |
| 2026-02-22 12:38 | -3.15246 | -33.78102 | 36130 ft | 480 kts | 208° |
| 2026-02-22 12:38 | -3.21150 | -33.81227 | 36130 ft | 480 kts | 208° |
| 2026-02-22 12:39 | -3.27055 | -33.84352 | 36130 ft | 480 kts | 208° |
| 2026-02-22 12:39 | -3.32960 | -33.87478 | 36130 ft | 480 kts | 208° |
| 2026-02-22 12:40 | -3.38865 | -33.90603 | 36130 ft | 480 kts | 208° |
| 2026-02-22 12:40 | -3.44731 | -33.93709 | 36130 ft | 480 kts | 208° |
| 2026-02-22 12:41 | -3.50641 | -33.96839 | 36130 ft | 480 kts | 208° |
| 2026-02-22 12:41 | -3.56539 | -33.99964 | 36130 ft | 480 kts | 208° |
| 2026-02-22 12:42 | -3.65385 | -34.04652 | 36130 ft | 480 kts | 208° |
| 2026-02-22 12:43 | -3.71283 | -34.07785 | 36130 ft | 480 kts | 208° |
| 2026-02-22 12:43 | -3.77183 | -34.10921 | 36130 ft | 480 kts | 208° |
| 2026-02-22 12:44 | -3.83082 | -34.14057 | 36130 ft | 480 kts | 208° |
| 2026-02-22 12:44 | -3.88942 | -34.17173 | 36130 ft | 480 kts | 208° |
| 2026-02-22 12:45 | -3.94837 | -34.20308 | 36130 ft | 480 kts | 208° |
| 2026-02-22 12:45 | -4.00740 | -34.23446 | 36130 ft | 480 kts | 208° |
| 2026-02-22 12:46 | -4.06638 | -34.26582 | 36130 ft | 480 kts | 208° |
| 2026-02-22 12:46 | -4.12534 | -34.29719 | 36130 ft | 480 kts | 208° |
| 2026-02-22 12:47 | -4.18427 | -34.32855 | 36130 ft | 480 kts | 208° |
| 2026-02-22 12:47 | -4.24324 | -34.35993 | 36130 ft | 480 kts | 208° |
| 2026-02-22 12:48 | -4.30219 | -34.39131 | 36130 ft | 480 kts | 208° |
| 2026-02-22 12:48 | -4.36112 | -34.42268 | 36130 ft | 480 kts | 208° |
| 2026-02-22 12:49 | -4.42010 | -34.45409 | 36130 ft | 480 kts | 208° |
| 2026-02-22 12:49 | -4.47901 | -34.48546 | 36130 ft | 480 kts | 208° |
| 2026-02-22 12:50 | -4.53761 | -34.51668 | 36130 ft | 480 kts | 208° |
| 2026-02-22 12:50 | -4.59663 | -34.54812 | 36130 ft | 480 kts | 208° |
| 2026-02-22 12:51 | -4.65560 | -34.57955 | 36130 ft | 480 kts | 208° |
| 2026-02-22 12:51 | -4.71464 | -34.61102 | 36130 ft | 480 kts | 208° |
| 2026-02-22 12:52 | -4.77360 | -34.64245 | 36130 ft | 480 kts | 208° |
| 2026-02-22 12:52 | -4.83215 | -34.67367 | 36130 ft | 480 kts | 208° |
| 2026-02-22 12:53 | -4.89109 | -34.70510 | 36130 ft | 480 kts | 208° |
| 2026-02-22 12:53 | -4.95005 | -34.73655 | 36130 ft | 480 kts | 208° |
| 2026-02-22 12:54 | -5.00900 | -34.76800 | 36130 ft | 480 kts | 208° |
| 2026-02-22 12:54 | -5.06795 | -34.79944 | 36130 ft | 480 kts | 208° |
| 2026-02-22 12:55 | -5.12690 | -34.83091 | 36130 ft | 480 kts | 208° |
| 2026-02-22 12:55 | -5.18582 | -34.86238 | 36130 ft | 480 kts | 208° |
| 2026-02-22 12:56 | -5.24438 | -34.89366 | 36130 ft | 480 kts | 208° |
| 2026-02-22 12:56 | -5.30337 | -34.92516 | 36130 ft | 480 kts | 208° |
| 2026-02-22 12:57 | -5.36233 | -34.95669 | 36130 ft | 480 kts | 208° |
| 2026-02-22 12:57 | -5.42128 | -34.98823 | 36130 ft | 480 kts | 208° |
| 2026-02-22 12:58 | -5.48017 | -35.01976 | 36130 ft | 480 kts | 208° |
| 2026-02-22 12:58 | -5.53870 | -35.05111 | 36130 ft | 480 kts | 208° |
| 2026-02-22 12:59 | -5.59760 | -35.08266 | 36130 ft | 480 kts | 208° |
| 2026-02-22 12:59 | -5.65652 | -35.11418 | 36130 ft | 480 kts | 208° |
| 2026-02-22 13:00 | -5.71549 | -35.14576 | 36130 ft | 480 kts | 208° |
| 2026-02-22 13:00 | -5.77439 | -35.17734 | 36130 ft | 480 kts | 208° |
| 2026-02-22 13:01 | -5.83326 | -35.20891 | 36130 ft | 480 kts | 208° |
| 2026-02-22 13:01 | -5.89218 | -35.24049 | 36130 ft | 480 kts | 208° |
| 2026-02-22 13:02 | -5.95219 | -35.26966 | 36131 ft | 480 kts | 203° |
| 2026-02-22 13:02 | -6.01407 | -35.29491 | 36130 ft | 480 kts | 201° |
| 2026-02-22 13:03 | -6.07561 | -35.31968 | 36130 ft | 480 kts | 202° |
| 2026-02-22 13:03 | -6.13734 | -35.34517 | 36130 ft | 480 kts | 202° |
| 2026-02-22 13:04 | -6.19907 | -35.37090 | 36130 ft | 480 kts | 202° |
| 2026-02-22 13:04 | -6.26070 | -35.39665 | 36130 ft | 480 kts | 202° |
| 2026-02-22 13:05 | -6.32234 | -35.42243 | 36130 ft | 480 kts | 202° |
| 2026-02-22 13:05 | -6.38395 | -35.44824 | 36130 ft | 480 kts | 202° |
| 2026-02-22 13:06 | -6.44561 | -35.47408 | 36130 ft | 480 kts | 202° |
| 2026-02-22 13:06 | -6.50725 | -35.49992 | 36130 ft | 480 kts | 202° |
| 2026-02-22 13:07 | -6.56853 | -35.52562 | 36130 ft | 480 kts | 202° |
| 2026-02-22 13:07 | -6.63022 | -35.55150 | 36130 ft | 480 kts | 202° |
| 2026-02-22 13:08 | -6.69188 | -35.57738 | 36130 ft | 480 kts | 202° |
| 2026-02-22 13:08 | -6.75352 | -35.60325 | 36130 ft | 480 kts | 202° |
| 2026-02-22 13:09 | -6.81514 | -35.62912 | 36130 ft | 480 kts | 202° |
| 2026-02-22 13:09 | -6.87674 | -35.65499 | 36130 ft | 480 kts | 202° |
| 2026-02-22 13:10 | -6.93836 | -35.68087 | 36130 ft | 480 kts | 202° |
| 2026-02-22 13:10 | -6.99957 | -35.70660 | 36130 ft | 480 kts | 202° |
| 2026-02-22 13:11 | -7.06121 | -35.73250 | 36130 ft | 480 kts | 202° |
| 2026-02-22 13:11 | -7.12280 | -35.75840 | 36130 ft | 480 kts | 202° |
| 2026-02-22 13:12 | -7.18440 | -35.78430 | 36130 ft | 480 kts | 202° |
| 2026-02-22 13:12 | -7.23565 | -35.80587 | 36130 ft | 480 kts | 202° |
| 2026-02-22 13:13 | -7.29727 | -35.83180 | 36130 ft | 480 kts | 202° |
| 2026-02-22 13:13 | -7.35895 | -35.85776 | 36130 ft | 480 kts | 202° |
| 2026-02-22 13:14 | -7.42055 | -35.88370 | 36130 ft | 480 kts | 202° |
| 2026-02-22 13:14 | -7.48181 | -35.90950 | 36130 ft | 480 kts | 202° |
| 2026-02-22 13:15 | -7.54346 | -35.93547 | 36130 ft | 480 kts | 202° |
| 2026-02-22 13:15 | -7.60503 | -35.96142 | 36130 ft | 480 kts | 202° |
| 2026-02-22 13:16 | -7.66661 | -35.98738 | 36130 ft | 480 kts | 202° |
| 2026-02-22 13:16 | -7.72826 | -36.01338 | 36130 ft | 480 kts | 202° |
| 2026-02-22 13:17 | -7.78947 | -36.03920 | 36130 ft | 480 kts | 202° |
| 2026-02-22 13:17 | -7.85112 | -36.06521 | 36130 ft | 480 kts | 202° |
| 2026-02-22 13:18 | -7.91275 | -36.09123 | 36130 ft | 480 kts | 202° |
| 2026-02-22 13:18 | -7.97436 | -36.11724 | 36130 ft | 480 kts | 202° |
| 2026-02-22 13:19 | -8.03589 | -36.14323 | 36130 ft | 480 kts | 202° |
| 2026-02-22 13:19 | -8.09753 | -36.16928 | 36130 ft | 480 kts | 202° |
| 2026-02-22 13:20 | -8.15873 | -36.19514 | 36130 ft | 480 kts | 202° |
| 2026-02-22 13:20 | -8.22033 | -36.22119 | 36130 ft | 480 kts | 202° |
| 2026-02-22 13:21 | -8.28192 | -36.24724 | 36130 ft | 480 kts | 202° |
| 2026-02-22 13:21 | -8.34346 | -36.27328 | 36130 ft | 480 kts | 202° |
| 2026-02-22 13:22 | -8.40503 | -36.29934 | 36130 ft | 480 kts | 202° |
| 2026-02-22 13:22 | -8.46664 | -36.32542 | 36130 ft | 480 kts | 202° |
| 2026-02-22 13:23 | -8.52822 | -36.35150 | 36130 ft | 480 kts | 202° |
| 2026-02-22 13:23 | -8.58940 | -36.37742 | 36130 ft | 480 kts | 202° |
| 2026-02-22 13:24 | -8.65100 | -36.40353 | 36130 ft | 480 kts | 202° |
| 2026-02-22 13:24 | -8.71260 | -36.42965 | 36130 ft | 480 kts | 202° |
| 2026-02-22 13:25 | -8.77417 | -36.45576 | 36130 ft | 480 kts | 202° |
| 2026-02-22 13:25 | -8.83570 | -36.48187 | 36130 ft | 480 kts | 202° |
| 2026-02-22 13:26 | -8.89726 | -36.50800 | 36130 ft | 480 kts | 202° |
| 2026-02-22 13:26 | -8.95843 | -36.53396 | 36130 ft | 480 kts | 202° |
| 2026-02-22 13:27 | -9.02001 | -36.56011 | 36130 ft | 480 kts | 202° |
| 2026-02-22 13:27 | -9.08157 | -36.58627 | 36130 ft | 480 kts | 202° |
| 2026-02-22 13:28 | -9.14309 | -36.61244 | 36130 ft | 480 kts | 202° |
| 2026-02-22 13:28 | -9.20465 | -36.63863 | 36130 ft | 480 kts | 202° |
| 2026-02-22 13:29 | -9.26562 | -36.66632 | 36130 ft | 480 kts | 207° |
| 2026-02-22 13:29 | -9.32443 | -36.69842 | 36130 ft | 480 kts | 209° |
| 2026-02-22 13:30 | -9.38235 | -36.73097 | 36130 ft | 480 kts | 208° |
| 2026-02-22 13:30 | -9.44107 | -36.76317 | 36130 ft | 480 kts | 208° |
| 2026-02-22 13:31 | -9.49991 | -36.79512 | 36130 ft | 480 kts | 208° |
| 2026-02-22 13:31 | -9.55881 | -36.82698 | 36130 ft | 480 kts | 208° |
| 2026-02-22 13:32 | -9.61774 | -36.85880 | 36130 ft | 480 kts | 208° |
| 2026-02-22 13:32 | -9.67662 | -36.89063 | 36130 ft | 480 kts | 208° |
| 2026-02-22 13:33 | -9.73554 | -36.92249 | 36130 ft | 480 kts | 208° |
| 2026-02-22 13:33 | -9.79439 | -36.95433 | 36130 ft | 480 kts | 208° |
| 2026-02-22 13:34 | -9.85292 | -36.98601 | 36130 ft | 480 kts | 208° |
| 2026-02-22 13:34 | -9.91182 | -37.01791 | 36130 ft | 480 kts | 208° |
| 2026-02-22 13:35 | -9.97072 | -37.04982 | 36130 ft | 480 kts | 208° |
| 2026-02-22 13:35 | -10.02965 | -37.08176 | 36130 ft | 480 kts | 208° |
| 2026-02-22 13:36 | -10.08855 | -37.11369 | 36130 ft | 480 kts | 208° |
| 2026-02-22 13:36 | -10.14701 | -37.14540 | 36130 ft | 480 kts | 208° |
| 2026-02-22 13:37 | -10.20587 | -37.17734 | 36130 ft | 480 kts | 208° |
| 2026-02-22 13:37 | -10.26477 | -37.20931 | 36130 ft | 480 kts | 208° |
| 2026-02-22 13:38 | -10.32364 | -37.24128 | 36130 ft | 480 kts | 208° |
| 2026-02-22 13:38 | -10.38251 | -37.27327 | 36130 ft | 480 kts | 208° |
| 2026-02-22 13:39 | -10.44141 | -37.30528 | 36130 ft | 480 kts | 208° |
| 2026-02-22 13:39 | -10.50028 | -37.33730 | 36130 ft | 480 kts | 208° |
| 2026-02-22 13:40 | -10.55875 | -37.36911 | 36130 ft | 480 kts | 208° |
| 2026-02-22 13:40 | -10.61764 | -37.40116 | 36130 ft | 480 kts | 208° |
| 2026-02-22 13:41 | -10.67652 | -37.43322 | 36130 ft | 480 kts | 208° |
| 2026-02-22 13:41 | -10.73539 | -37.46529 | 36130 ft | 480 kts | 208° |
| 2026-02-22 13:42 | -10.79428 | -37.49739 | 36130 ft | 480 kts | 208° |
| 2026-02-22 13:42 | -10.88249 | -37.54549 | 36130 ft | 480 kts | 208° |
| 2026-02-22 13:43 | -10.94136 | -37.57761 | 36130 ft | 480 kts | 208° |
| 2026-02-22 13:43 | -11.00019 | -37.60972 | 36130 ft | 480 kts | 208° |
| 2026-02-22 13:44 | -11.05898 | -37.64183 | 36130 ft | 480 kts | 208° |
| 2026-02-22 13:44 | -11.11746 | -37.67378 | 36130 ft | 480 kts | 208° |
| 2026-02-22 13:45 | -11.17632 | -37.70596 | 36130 ft | 480 kts | 208° |
| 2026-02-22 13:45 | -11.23510 | -37.73805 | 36130 ft | 480 kts | 208° |
| 2026-02-22 13:46 | -11.29396 | -37.77027 | 36130 ft | 480 kts | 208° |
| 2026-02-22 13:46 | -11.35274 | -37.80247 | 36130 ft | 480 kts | 208° |
| 2026-02-22 13:47 | -11.41152 | -37.83468 | 36130 ft | 480 kts | 208° |
| 2026-02-22 13:47 | -11.47010 | -37.86732 | 36130 ft | 479 kts | 211° |
| 2026-02-22 13:48 | -11.52555 | -37.90518 | 36131 ft | 480 kts | 216° |
| 2026-02-22 13:48 | -11.57884 | -37.94551 | 36130 ft | 480 kts | 217° |
| 2026-02-22 13:49 | -11.63272 | -37.98571 | 36130 ft | 480 kts | 216° |
| 2026-02-22 13:49 | -11.68689 | -38.02548 | 36130 ft | 480 kts | 216° |
| 2026-02-22 13:50 | -11.74112 | -38.06514 | 36130 ft | 480 kts | 216° |
| 2026-02-22 13:50 | -11.79553 | -38.10476 | 36130 ft | 480 kts | 216° |
| 2026-02-22 13:51 | -11.84988 | -38.14439 | 36130 ft | 480 kts | 216° |
| 2026-02-22 13:51 | -11.90385 | -38.18379 | 36130 ft | 480 kts | 216° |
| 2026-02-22 13:52 | -11.95811 | -38.22342 | 36130 ft | 480 kts | 216° |
| 2026-02-22 13:52 | -12.01239 | -38.26309 | 36130 ft | 480 kts | 216° |
| 2026-02-22 13:53 | -12.06665 | -38.30277 | 36130 ft | 480 kts | 216° |
| 2026-02-22 13:53 | -12.12096 | -38.34250 | 36130 ft | 480 kts | 216° |
| 2026-02-22 13:54 | -12.17521 | -38.38221 | 36130 ft | 479 kts | 216° |
| 2026-02-22 13:54 | -12.22945 | -38.42193 | 36130 ft | 480 kts | 216° |
| 2026-02-22 13:55 | -12.28373 | -38.46170 | 36130 ft | 479 kts | 216° |
| 2026-02-22 13:55 | -12.33760 | -38.50120 | 36130 ft | 480 kts | 216° |
| 2026-02-22 13:56 | -12.39188 | -38.54101 | 36130 ft | 479 kts | 216° |
| 2026-02-22 13:56 | -12.44614 | -38.58083 | 36130 ft | 479 kts | 216° |
| 2026-02-22 13:57 | -12.49125 | -38.61390 | 36130 ft | 479 kts | 216° |
| 2026-02-22 13:57 | -12.55466 | -38.66047 | 36130 ft | 479 kts | 216° |
| 2026-02-22 13:58 | -12.59967 | -38.69358 | 36130 ft | 479 kts | 216° |
| 2026-02-22 13:58 | -12.66267 | -38.73995 | 36130 ft | 479 kts | 216° |
| 2026-02-22 13:59 | -12.70810 | -38.77338 | 36130 ft | 479 kts | 216° |
| 2026-02-22 13:59 | -12.76228 | -38.81326 | 36130 ft | 479 kts | 216° |
| 2026-02-22 14:00 | -12.81608 | -38.85291 | 36130 ft | 479 kts | 216° |
| 2026-02-22 14:00 | -12.87028 | -38.89289 | 36130 ft | 479 kts | 216° |
| 2026-02-22 14:01 | -12.92440 | -38.93301 | 36130 ft | 479 kts | 216° |
| 2026-02-22 14:01 | -12.97853 | -38.97321 | 36130 ft | 479 kts | 216° |
| 2026-02-22 14:02 | -13.03258 | -39.01336 | 36130 ft | 479 kts | 216° |
| 2026-02-22 14:02 | -13.08663 | -39.05355 | 36130 ft | 479 kts | 216° |
| 2026-02-22 14:03 | -13.14029 | -39.09346 | 36130 ft | 479 kts | 216° |
| 2026-02-22 14:03 | -13.19440 | -39.13359 | 36130 ft | 479 kts | 216° |
| 2026-02-22 14:04 | -13.24844 | -39.17371 | 36130 ft | 479 kts | 216° |
| 2026-02-22 14:04 | -13.30249 | -39.21397 | 36130 ft | 479 kts | 216° |
| 2026-02-22 14:05 | -13.35649 | -39.25423 | 36130 ft | 479 kts | 216° |
| 2026-02-22 14:05 | -13.41016 | -39.29427 | 36130 ft | 479 kts | 216° |
| 2026-02-22 14:06 | -13.46417 | -39.33456 | 36130 ft | 479 kts | 216° |
| 2026-02-22 14:06 | -13.51808 | -39.37491 | 36130 ft | 479 kts | 216° |
| 2026-02-22 14:07 | -13.57207 | -39.41536 | 36130 ft | 479 kts | 216° |
| 2026-02-22 14:07 | -13.62599 | -39.45580 | 36130 ft | 479 kts | 216° |
| 2026-02-22 14:08 | -13.67993 | -39.49627 | 36130 ft | 479 kts | 216° |
| 2026-02-22 14:08 | -13.73348 | -39.53646 | 36130 ft | 479 kts | 216° |
| 2026-02-22 14:09 | -13.78755 | -39.57693 | 36130 ft | 479 kts | 216° |
| 2026-02-22 14:09 | -13.84151 | -39.61741 | 36130 ft | 479 kts | 216° |
| 2026-02-22 14:10 | -13.89546 | -39.65793 | 36130 ft | 479 kts | 216° |
| 2026-02-22 14:10 | -13.94903 | -39.69820 | 36130 ft | 479 kts | 216° |
| 2026-02-22 14:11 | -14.00294 | -39.73876 | 36130 ft | 479 kts | 216° |
| 2026-02-22 14:11 | -14.05683 | -39.77932 | 36130 ft | 479 kts | 216° |
| 2026-02-22 14:12 | -14.11073 | -39.81992 | 36130 ft | 479 kts | 216° |
| 2026-02-22 14:12 | -14.16459 | -39.86051 | 36130 ft | 479 kts | 216° |
| 2026-02-22 14:13 | -14.21843 | -39.90110 | 36130 ft | 479 kts | 216° |
| 2026-02-22 14:13 | -14.27198 | -39.94151 | 36130 ft | 479 kts | 216° |
| 2026-02-22 14:14 | -14.32583 | -39.98216 | 36130 ft | 479 kts | 216° |
| 2026-02-22 14:15 | -14.40666 | -40.04315 | 36130 ft | 479 kts | 216° |
| 2026-02-22 14:15 | -14.46046 | -40.08386 | 36130 ft | 479 kts | 216° |
| 2026-02-22 14:16 | -14.51431 | -40.12465 | 36130 ft | 479 kts | 216° |
| 2026-02-22 14:16 | -14.56774 | -40.16512 | 36130 ft | 479 kts | 216° |
| 2026-02-22 14:17 | -14.62151 | -40.20584 | 36130 ft | 479 kts | 216° |
| 2026-02-22 14:17 | -14.67532 | -40.24665 | 36130 ft | 479 kts | 216° |
| 2026-02-22 14:18 | -14.72911 | -40.28750 | 36130 ft | 479 kts | 216° |
| 2026-02-22 14:18 | -14.78289 | -40.32837 | 36130 ft | 479 kts | 216° |
| 2026-02-22 14:19 | -14.83666 | -40.36926 | 36130 ft | 479 kts | 216° |
| 2026-02-22 14:19 | -14.89009 | -40.40984 | 36130 ft | 479 kts | 216° |
| 2026-02-22 14:20 | -14.94393 | -40.45070 | 36130 ft | 479 kts | 216° |
| 2026-02-22 14:20 | -14.99774 | -40.49162 | 36130 ft | 479 kts | 216° |
| 2026-02-22 14:21 | -15.05147 | -40.53253 | 36130 ft | 479 kts | 216° |
| 2026-02-22 14:21 | -15.10518 | -40.57345 | 36130 ft | 479 kts | 216° |
| 2026-02-22 14:22 | -15.15891 | -40.61442 | 36130 ft | 479 kts | 216° |
| 2026-02-22 14:22 | -15.21266 | -40.65543 | 36130 ft | 479 kts | 216° |
| 2026-02-22 14:23 | -15.26603 | -40.69618 | 36130 ft | 479 kts | 216° |
| 2026-02-22 14:23 | -15.31975 | -40.73723 | 36130 ft | 479 kts | 216° |
| 2026-02-22 14:24 | -15.37349 | -40.77831 | 36130 ft | 479 kts | 216° |
| 2026-02-22 14:24 | -15.42722 | -40.81942 | 36130 ft | 479 kts | 216° |
| 2026-02-22 14:25 | -15.48091 | -40.86052 | 36130 ft | 479 kts | 216° |
| 2026-02-22 14:25 | -15.53430 | -40.90142 | 36130 ft | 479 kts | 216° |
| 2026-02-22 14:26 | -15.58798 | -40.94257 | 36130 ft | 479 kts | 216° |
| 2026-02-22 14:26 | -15.64165 | -40.98374 | 36130 ft | 479 kts | 216° |
| 2026-02-22 14:27 | -15.69533 | -41.02493 | 36130 ft | 479 kts | 216° |
| 2026-02-22 14:27 | -15.74866 | -41.06581 | 36130 ft | 479 kts | 216° |
| 2026-02-22 14:28 | -15.80228 | -41.10701 | 36130 ft | 479 kts | 217° |
| 2026-02-22 14:28 | -15.85585 | -41.14826 | 36130 ft | 479 kts | 217° |
| 2026-02-22 14:29 | -15.90943 | -41.18954 | 36130 ft | 479 kts | 217° |
| 2026-02-22 14:29 | -15.96308 | -41.23087 | 36130 ft | 479 kts | 217° |
| 2026-02-22 14:30 | -16.01666 | -41.27219 | 36130 ft | 479 kts | 217° |
| 2026-02-22 14:30 | -16.07025 | -41.31357 | 36130 ft | 479 kts | 217° |
| 2026-02-22 14:31 | -16.12341 | -41.35468 | 36130 ft | 479 kts | 217° |
| 2026-02-22 14:31 | -16.17697 | -41.39612 | 36130 ft | 479 kts | 217° |
| 2026-02-22 14:32 | -16.23052 | -41.43759 | 36130 ft | 479 kts | 217° |
| 2026-02-22 14:32 | -16.28409 | -41.47896 | 36130 ft | 479 kts | 217° |
| 2026-02-22 14:33 | -16.33762 | -41.52035 | 36130 ft | 479 kts | 217° |
| 2026-02-22 14:33 | -16.39112 | -41.56180 | 36130 ft | 479 kts | 217° |
| 2026-02-22 14:34 | -16.44461 | -41.60328 | 36130 ft | 479 kts | 217° |
| 2026-02-22 14:34 | -16.49809 | -41.64480 | 36130 ft | 479 kts | 217° |
| 2026-02-22 14:35 | -16.55123 | -41.68608 | 36130 ft | 479 kts | 217° |
| 2026-02-22 14:35 | -16.60473 | -41.72766 | 36130 ft | 479 kts | 217° |
| 2026-02-22 14:36 | -16.65825 | -41.76918 | 36130 ft | 479 kts | 217° |
| 2026-02-22 14:36 | -16.71172 | -41.81081 | 36130 ft | 479 kts | 217° |
| 2026-02-22 14:37 | -16.76517 | -41.85249 | 36130 ft | 479 kts | 217° |
| 2026-02-22 14:37 | -16.81824 | -41.89391 | 36130 ft | 479 kts | 217° |
| 2026-02-22 14:38 | -16.87169 | -41.93561 | 36130 ft | 479 kts | 217° |
| 2026-02-22 14:38 | -16.92513 | -41.97730 | 36130 ft | 479 kts | 217° |
| 2026-02-22 14:39 | -16.97850 | -42.01901 | 36130 ft | 479 kts | 217° |
| 2026-02-22 14:39 | -17.03198 | -42.06085 | 36130 ft | 479 kts | 217° |
| 2026-02-22 14:40 | -17.08531 | -42.10261 | 36130 ft | 479 kts | 217° |
| 2026-02-22 14:40 | -17.13839 | -42.14421 | 36130 ft | 479 kts | 217° |
| 2026-02-22 14:41 | -17.19181 | -42.18594 | 36130 ft | 479 kts | 217° |
| 2026-02-22 14:41 | -17.24519 | -42.22769 | 36130 ft | 479 kts | 217° |
| 2026-02-22 14:42 | -17.29860 | -42.26955 | 36130 ft | 479 kts | 217° |
| 2026-02-22 14:42 | -17.35197 | -42.31143 | 36130 ft | 479 kts | 217° |
| 2026-02-22 14:43 | -17.40500 | -42.35309 | 36130 ft | 479 kts | 217° |
| 2026-02-22 14:43 | -17.45835 | -42.39502 | 36130 ft | 479 kts | 217° |
| 2026-02-22 14:44 | -17.51166 | -42.43696 | 36130 ft | 479 kts | 217° |
| 2026-02-22 14:44 | -17.56498 | -42.47893 | 36130 ft | 479 kts | 217° |
| 2026-02-22 14:45 | -17.61832 | -42.52096 | 36130 ft | 479 kts | 217° |
| 2026-02-22 14:45 | -17.66261 | -42.55587 | 36130 ft | 479 kts | 217° |
| 2026-02-22 14:46 | -17.71587 | -42.59789 | 36130 ft | 479 kts | 217° |
| 2026-02-22 14:46 | -17.76920 | -42.64000 | 36130 ft | 479 kts | 217° |
| 2026-02-22 14:47 | -17.82245 | -42.68208 | 36130 ft | 479 kts | 217° |
| 2026-02-22 14:47 | -17.87543 | -42.72397 | 36130 ft | 479 kts | 217° |
| 2026-02-22 14:48 | -17.92869 | -42.76612 | 36130 ft | 479 kts | 217° |
| 2026-02-22 14:48 | -17.98191 | -42.80827 | 36130 ft | 479 kts | 217° |
| 2026-02-22 14:49 | -18.03512 | -42.85044 | 36130 ft | 479 kts | 217° |
| 2026-02-22 14:49 | -18.08835 | -42.89266 | 36130 ft | 479 kts | 217° |
| 2026-02-22 14:50 | -18.13256 | -42.92775 | 36130 ft | 479 kts | 217° |
| 2026-02-22 14:50 | -18.19444 | -42.97679 | 36130 ft | 479 kts | 217° |
| 2026-02-22 14:51 | -18.24764 | -43.01913 | 36130 ft | 479 kts | 217° |
| 2026-02-22 14:51 | -18.30082 | -43.06149 | 36130 ft | 479 kts | 217° |
| 2026-02-22 14:52 | -18.35364 | -43.10359 | 36130 ft | 479 kts | 217° |
| 2026-02-22 14:52 | -18.40675 | -43.14605 | 36130 ft | 479 kts | 217° |
| 2026-02-22 14:53 | -18.45966 | -43.18886 | 36130 ft | 479 kts | 217° |
| 2026-02-22 14:53 | -18.51247 | -43.23171 | 36130 ft | 479 kts | 218° |
| 2026-02-22 14:54 | -18.56527 | -43.27459 | 36130 ft | 479 kts | 218° |
| 2026-02-22 14:54 | -18.61810 | -43.31749 | 36130 ft | 479 kts | 218° |
| 2026-02-22 14:55 | -18.67088 | -43.35968 | 36130 ft | 479 kts | 217° |
| 2026-02-22 14:55 | -18.72418 | -43.40196 | 36130 ft | 479 kts | 217° |
| 2026-02-22 14:56 | -18.77739 | -43.44435 | 36130 ft | 479 kts | 217° |
| 2026-02-22 14:56 | -18.83060 | -43.48678 | 36130 ft | 479 kts | 217° |
| 2026-02-22 14:57 | -18.88380 | -43.52920 | 36130 ft | 479 kts | 217° |
| 2026-02-22 14:57 | -18.93758 | -43.57065 | 36130 ft | 479 kts | 216° |
| 2026-02-22 14:58 | -18.99157 | -43.61198 | 36130 ft | 479 kts | 216° |
| 2026-02-22 14:58 | -19.04513 | -43.65314 | 36130 ft | 479 kts | 216° |
| 2026-02-22 14:59 | -19.09902 | -43.69463 | 36130 ft | 479 kts | 216° |
| 2026-02-22 14:59 | -19.15292 | -43.73617 | 36130 ft | 479 kts | 216° |
| 2026-02-22 15:00 | -19.19776 | -43.77060 | 36130 ft | 479 kts | 216° |
| 2026-02-22 15:00 | -19.26046 | -43.81888 | 36130 ft | 479 kts | 216° |
| 2026-02-22 15:01 | -19.31436 | -43.86041 | 36130 ft | 479 kts | 216° |
| 2026-02-22 15:01 | -19.36824 | -43.90197 | 36130 ft | 479 kts | 216° |
| 2026-02-22 15:02 | -19.44897 | -43.96447 | 36130 ft | 479 kts | 216° |
| 2026-02-22 15:03 | -19.52927 | -44.02670 | 36130 ft | 479 kts | 216° |
| 2026-02-22 15:03 | -19.61026 | -44.08877 | 36130 ft | 479 kts | 216° |
| 2026-02-22 15:04 | -19.71847 | -44.17143 | 36130 ft | 479 kts | 216° |
| 2026-02-22 15:06 | -19.85271 | -44.27539 | 36130 ft | 479 kts | 216° |
| 2026-02-22 15:07 | -20.01420 | -44.40045 | 36130 ft | 479 kts | 216° |
| 2026-02-22 15:08 | -20.12143 | -44.48386 | 36130 ft | 479 kts | 216° |
| 2026-02-22 15:09 | -20.22906 | -44.56756 | 36130 ft | 479 kts | 216° |
| 2026-02-22 15:10 | -20.36128 | -44.67042 | 36130 ft | 479 kts | 216° |
| 2026-02-22 15:12 | -20.54940 | -44.81730 | 36130 ft | 479 kts | 216° |
| 2026-02-22 15:14 | -20.71034 | -44.94355 | 36130 ft | 479 kts | 216° |